<?xml version="1.0" encoding="UTF-8" standalone="no" ?>
<gpx xmlns="http://www.topografix.com/GPX/1/1" xmlns:xsi="http://www.w3.org/2001/XMLSchema-instance" xsi:schemaLocation="http://www.topografix.com/GPX/1/1 http://www.topografix.com/GPX/1/1/gpx.xsd" version="1.1" creator="VisuGPX - https://www.visugpx.com">
  <metadata>
    <name>Mimet Baou Traouqua, Grand Puech</name>
    <desc><![CDATA[Boucle de près de 8 km, dénivelé cumulé 250 m au départ du parking du Col Ste Anne]]></desc>
  </metadata>
  <trk>
    <name><![CDATA[Mimet-Le grand Puech_23 mai 2018]]></name>
    <trkseg>
      <trkpt lat="43.41097" lon="5.49132">
        <ele>567.22801368942</ele>
        <time>2018-05-23T07:45:07Z</time>
      </trkpt>
      <trkpt lat="43.41096" lon="5.49121">
        <ele>524.50223200476</ele>
        <time>2018-05-23T07:51:40Z</time>
      </trkpt>
      <trkpt lat="43.4109" lon="5.49113">
        <ele>524.37392047302</ele>
        <time>2018-05-23T07:51:47Z</time>
      </trkpt>
      <trkpt lat="43.41083" lon="5.49106">
        <ele>524.24339360597</ele>
        <time>2018-05-23T07:51:56Z</time>
      </trkpt>
      <trkpt lat="43.41077" lon="5.49098">
        <ele>524.12817748465</ele>
        <time>2018-05-23T07:52:10Z</time>
      </trkpt>
      <trkpt lat="43.41072" lon="5.49089">
        <ele>524.07612484125</ele>
        <time>2018-05-23T07:52:19Z</time>
      </trkpt>
      <trkpt lat="43.41065" lon="5.49081">
        <ele>524.06524764023</ele>
        <time>2018-05-23T07:52:27Z</time>
      </trkpt>
      <trkpt lat="43.4106" lon="5.49071">
        <ele>524.09623455049</ele>
        <time>2018-05-23T07:52:40Z</time>
      </trkpt>
      <trkpt lat="43.41055" lon="5.49063">
        <ele>524.12383256624</ele>
        <time>2018-05-23T07:52:46Z</time>
      </trkpt>
      <trkpt lat="43.4105" lon="5.49053">
        <ele>524.15776278402</ele>
        <time>2018-05-23T07:52:51Z</time>
      </trkpt>
      <trkpt lat="43.41045" lon="5.49044">
        <ele>524.22829291422</ele>
        <time>2018-05-23T07:53:00Z</time>
      </trkpt>
      <trkpt lat="43.41039" lon="5.49035">
        <ele>524.33908380361</ele>
        <time>2018-05-23T07:53:11Z</time>
      </trkpt>
      <trkpt lat="43.4103" lon="5.49034">
        <ele>524.729558224</ele>
        <time>2018-05-23T07:54:03Z</time>
      </trkpt>
      <trkpt lat="43.41029" lon="5.49045">
        <ele>525.0010678211</ele>
        <time>2018-05-23T07:54:14Z</time>
      </trkpt>
      <trkpt lat="43.41033" lon="5.49055">
        <ele>525.28855152675</ele>
        <time>2018-05-23T07:54:29Z</time>
      </trkpt>
      <trkpt lat="43.41039" lon="5.49063">
        <ele>525.51992522365</ele>
        <time>2018-05-23T07:54:38Z</time>
      </trkpt>
      <trkpt lat="43.41044" lon="5.49074">
        <ele>525.89703231718</ele>
        <time>2018-05-23T07:54:49Z</time>
      </trkpt>
      <trkpt lat="43.41045" lon="5.49084">
        <ele>526.26566203472</ele>
        <time>2018-05-23T07:54:58Z</time>
      </trkpt>
      <trkpt lat="43.41045" lon="5.49097">
        <ele>526.74404937109</ele>
        <time>2018-05-23T07:55:09Z</time>
      </trkpt>
      <trkpt lat="43.41045" lon="5.49109">
        <ele>527.19833946062</ele>
        <time>2018-05-23T07:55:19Z</time>
      </trkpt>
      <trkpt lat="43.41047" lon="5.4912">
        <ele>527.53326804093</ele>
        <time>2018-05-23T07:55:26Z</time>
      </trkpt>
      <trkpt lat="43.41046" lon="5.49131">
        <ele>528.06628115789</ele>
        <time>2018-05-23T07:55:36Z</time>
      </trkpt>
      <trkpt lat="43.41048" lon="5.49142">
        <ele>528.53982366847</ele>
        <time>2018-05-23T07:55:44Z</time>
      </trkpt>
      <trkpt lat="43.41049" lon="5.49153">
        <ele>529.14496022529</ele>
        <time>2018-05-23T07:55:53Z</time>
      </trkpt>
      <trkpt lat="43.41049" lon="5.49166">
        <ele>529.77748874488</ele>
        <time>2018-05-23T07:56:02Z</time>
      </trkpt>
      <trkpt lat="43.41049" lon="5.49178">
        <ele>530.54440501813</ele>
        <time>2018-05-23T07:56:13Z</time>
      </trkpt>
      <trkpt lat="43.41049" lon="5.49189">
        <ele>531.02438124366</ele>
        <time>2018-05-23T07:56:20Z</time>
      </trkpt>
      <trkpt lat="43.41052" lon="5.492">
        <ele>531.52456470676</ele>
        <time>2018-05-23T07:56:27Z</time>
      </trkpt>
      <trkpt lat="43.41049" lon="5.49211">
        <ele>532.30206299107</ele>
        <time>2018-05-23T07:56:38Z</time>
      </trkpt>
      <trkpt lat="43.41045" lon="5.49222">
        <ele>532.94450008084</ele>
        <time>2018-05-23T07:56:48Z</time>
      </trkpt>
      <trkpt lat="43.41048" lon="5.49233">
        <ele>533.3842734164</ele>
        <time>2018-05-23T07:56:55Z</time>
      </trkpt>
      <trkpt lat="43.41046" lon="5.49243">
        <ele>534.0145170445</ele>
        <time>2018-05-23T07:57:05Z</time>
      </trkpt>
      <trkpt lat="43.4104" lon="5.49253">
        <ele>534.50192105727</ele>
        <time>2018-05-23T07:57:13Z</time>
      </trkpt>
      <trkpt lat="43.41035" lon="5.49262">
        <ele>535.12085275302</ele>
        <time>2018-05-23T07:57:24Z</time>
      </trkpt>
      <trkpt lat="43.41033" lon="5.49273">
        <ele>535.52716679934</ele>
        <time>2018-05-23T07:57:32Z</time>
      </trkpt>
      <trkpt lat="43.41034" lon="5.49283">
        <ele>535.85265024239</ele>
        <time>2018-05-23T07:57:39Z</time>
      </trkpt>
      <trkpt lat="43.41037" lon="5.49294">
        <ele>536.12506178504</ele>
        <time>2018-05-23T07:57:45Z</time>
      </trkpt>
      <trkpt lat="43.41036" lon="5.49306">
        <ele>536.51777650848</ele>
        <time>2018-05-23T07:57:54Z</time>
      </trkpt>
      <trkpt lat="43.41034" lon="5.49317">
        <ele>536.75743538456</ele>
        <time>2018-05-23T07:58:00Z</time>
      </trkpt>
      <trkpt lat="43.41031" lon="5.49328">
        <ele>537.08021157136</ele>
        <time>2018-05-23T07:58:09Z</time>
      </trkpt>
      <trkpt lat="43.41029" lon="5.49339">
        <ele>537.33426152159</ele>
        <time>2018-05-23T07:58:17Z</time>
      </trkpt>
      <trkpt lat="43.41026" lon="5.49349">
        <ele>537.58429238518</ele>
        <time>2018-05-23T07:58:26Z</time>
      </trkpt>
      <trkpt lat="43.41022" lon="5.4936">
        <ele>537.82051032137</ele>
        <time>2018-05-23T07:58:36Z</time>
      </trkpt>
      <trkpt lat="43.41018" lon="5.4937">
        <ele>537.98343756921</ele>
        <time>2018-05-23T07:58:44Z</time>
      </trkpt>
      <trkpt lat="43.41014" lon="5.49379">
        <ele>538.14899934799</ele>
        <time>2018-05-23T07:58:53Z</time>
      </trkpt>
      <trkpt lat="43.41008" lon="5.49388">
        <ele>538.29494572575</ele>
        <time>2018-05-23T07:59:02Z</time>
      </trkpt>
      <trkpt lat="43.41003" lon="5.49397">
        <ele>538.43296768433</ele>
        <time>2018-05-23T07:59:12Z</time>
      </trkpt>
      <trkpt lat="43.40997" lon="5.49405">
        <ele>538.52952204705</ele>
        <time>2018-05-23T07:59:20Z</time>
      </trkpt>
      <trkpt lat="43.40991" lon="5.49414">
        <ele>538.6268157359</ele>
        <time>2018-05-23T07:59:29Z</time>
      </trkpt>
      <trkpt lat="43.40985" lon="5.49422">
        <ele>538.7143068268</ele>
        <time>2018-05-23T07:59:38Z</time>
      </trkpt>
      <trkpt lat="43.4098" lon="5.49431">
        <ele>538.81338874539</ele>
        <time>2018-05-23T07:59:48Z</time>
      </trkpt>
      <trkpt lat="43.40975" lon="5.49441">
        <ele>538.92815332578</ele>
        <time>2018-05-23T07:59:58Z</time>
      </trkpt>
      <trkpt lat="43.40971" lon="5.4945">
        <ele>539.0218954787</ele>
        <time>2018-05-23T08:00:06Z</time>
      </trkpt>
      <trkpt lat="43.40972" lon="5.49461">
        <ele>539.10450442738</ele>
        <time>2018-05-23T08:00:13Z</time>
      </trkpt>
      <trkpt lat="43.40973" lon="5.49473">
        <ele>539.2027485352</ele>
        <time>2018-05-23T08:00:20Z</time>
      </trkpt>
      <trkpt lat="43.40969" lon="5.49484">
        <ele>539.36286709704</ele>
        <time>2018-05-23T08:00:30Z</time>
      </trkpt>
      <trkpt lat="43.40962" lon="5.49491">
        <ele>539.52291461822</ele>
        <time>2018-05-23T08:00:39Z</time>
      </trkpt>
      <trkpt lat="43.40956" lon="5.49499">
        <ele>539.65329306498</ele>
        <time>2018-05-23T08:00:46Z</time>
      </trkpt>
      <trkpt lat="43.40949" lon="5.49506">
        <ele>539.81924750922</ele>
        <time>2018-05-23T08:00:55Z</time>
      </trkpt>
      <trkpt lat="43.40943" lon="5.49513">
        <ele>540.00341777633</ele>
        <time>2018-05-23T08:01:05Z</time>
      </trkpt>
      <trkpt lat="43.40936" lon="5.4952">
        <ele>540.17912933427</ele>
        <time>2018-05-23T08:01:14Z</time>
      </trkpt>
      <trkpt lat="43.40932" lon="5.49531">
        <ele>540.36713955725</ele>
        <time>2018-05-23T08:01:24Z</time>
      </trkpt>
      <trkpt lat="43.40928" lon="5.49541">
        <ele>540.49988082154</ele>
        <time>2018-05-23T08:01:32Z</time>
      </trkpt>
      <trkpt lat="43.40927" lon="5.49553">
        <ele>540.58395841386</ele>
        <time>2018-05-23T08:01:39Z</time>
      </trkpt>
      <trkpt lat="43.40929" lon="5.49564">
        <ele>540.66841116741</ele>
        <time>2018-05-23T08:01:47Z</time>
      </trkpt>
      <trkpt lat="43.40926" lon="5.49576">
        <ele>540.76188210208</ele>
        <time>2018-05-23T08:01:54Z</time>
      </trkpt>
      <trkpt lat="43.40924" lon="5.49587">
        <ele>540.87746454734</ele>
        <time>2018-05-23T08:02:01Z</time>
      </trkpt>
      <trkpt lat="43.4092" lon="5.49597">
        <ele>541.02593589008</ele>
        <time>2018-05-23T08:02:09Z</time>
      </trkpt>
      <trkpt lat="43.40916" lon="5.49607">
        <ele>541.18141255388</ele>
        <time>2018-05-23T08:02:17Z</time>
      </trkpt>
      <trkpt lat="43.40913" lon="5.49618">
        <ele>541.3026255348</ele>
        <time>2018-05-23T08:02:24Z</time>
      </trkpt>
      <trkpt lat="43.40908" lon="5.49628">
        <ele>541.41635677056</ele>
        <time>2018-05-23T08:02:30Z</time>
      </trkpt>
      <trkpt lat="43.40903" lon="5.49637">
        <ele>541.55746066013</ele>
        <time>2018-05-23T08:02:37Z</time>
      </trkpt>
      <trkpt lat="43.40897" lon="5.49645">
        <ele>541.76016310527</ele>
        <time>2018-05-23T08:02:46Z</time>
      </trkpt>
      <trkpt lat="43.40889" lon="5.49648">
        <ele>541.96560849832</ele>
        <time>2018-05-23T08:02:54Z</time>
      </trkpt>
      <trkpt lat="43.40882" lon="5.49654">
        <ele>542.18562230433</ele>
        <time>2018-05-23T08:03:02Z</time>
      </trkpt>
      <trkpt lat="43.40877" lon="5.49663">
        <ele>542.42020569823</ele>
        <time>2018-05-23T08:03:10Z</time>
      </trkpt>
      <trkpt lat="43.40876" lon="5.49675">
        <ele>542.6018507619</ele>
        <time>2018-05-23T08:03:16Z</time>
      </trkpt>
      <trkpt lat="43.40874" lon="5.49686">
        <ele>542.81128959735</ele>
        <time>2018-05-23T08:03:22Z</time>
      </trkpt>
      <trkpt lat="43.40872" lon="5.49698">
        <ele>543.07679285219</ele>
        <time>2018-05-23T08:03:29Z</time>
      </trkpt>
      <trkpt lat="43.4087" lon="5.49708">
        <ele>543.31913583643</ele>
        <time>2018-05-23T08:03:35Z</time>
      </trkpt>
      <trkpt lat="43.40867" lon="5.49719">
        <ele>543.66650904394</ele>
        <time>2018-05-23T08:03:42Z</time>
      </trkpt>
      <trkpt lat="43.40866" lon="5.4973">
        <ele>544.04581891283</ele>
        <time>2018-05-23T08:03:49Z</time>
      </trkpt>
      <trkpt lat="43.40868" lon="5.49741">
        <ele>544.52665372828</ele>
        <time>2018-05-23T08:03:57Z</time>
      </trkpt>
      <trkpt lat="43.4087" lon="5.49752">
        <ele>544.97333650607</ele>
        <time>2018-05-23T08:04:04Z</time>
      </trkpt>
      <trkpt lat="43.40865" lon="5.49762">
        <ele>545.67823896796</ele>
        <time>2018-05-23T08:04:13Z</time>
      </trkpt>
      <trkpt lat="43.40859" lon="5.49769">
        <ele>546.37776098199</ele>
        <time>2018-05-23T08:04:22Z</time>
      </trkpt>
      <trkpt lat="43.40852" lon="5.49777">
        <ele>546.95688021686</ele>
        <time>2018-05-23T08:04:29Z</time>
      </trkpt>
      <trkpt lat="43.40844" lon="5.49784">
        <ele>547.62634051799</ele>
        <time>2018-05-23T08:04:37Z</time>
      </trkpt>
      <trkpt lat="43.40843" lon="5.49794">
        <ele>548.09290734949</ele>
        <time>2018-05-23T08:04:43Z</time>
      </trkpt>
      <trkpt lat="43.40844" lon="5.49805">
        <ele>548.56765097753</ele>
        <time>2018-05-23T08:04:49Z</time>
      </trkpt>
      <trkpt lat="43.40849" lon="5.49813">
        <ele>549.07225258223</ele>
        <time>2018-05-23T08:04:55Z</time>
      </trkpt>
      <trkpt lat="43.40853" lon="5.49824">
        <ele>549.72031329649</ele>
        <time>2018-05-23T08:05:03Z</time>
      </trkpt>
      <trkpt lat="43.40857" lon="5.49834">
        <ele>550.20148577183</ele>
        <time>2018-05-23T08:05:09Z</time>
      </trkpt>
      <trkpt lat="43.40861" lon="5.49845">
        <ele>550.76793233851</ele>
        <time>2018-05-23T08:05:16Z</time>
      </trkpt>
      <trkpt lat="43.4086" lon="5.49856">
        <ele>551.337599202</ele>
        <time>2018-05-23T08:05:23Z</time>
      </trkpt>
      <trkpt lat="43.40854" lon="5.49861">
        <ele>551.92343255187</ele>
        <time>2018-05-23T08:05:30Z</time>
      </trkpt>
      <trkpt lat="43.40846" lon="5.49867">
        <ele>552.52150288874</ele>
        <time>2018-05-23T08:05:37Z</time>
      </trkpt>
      <trkpt lat="43.40839" lon="5.49871">
        <ele>553.04293026489</ele>
        <time>2018-05-23T08:05:43Z</time>
      </trkpt>
      <trkpt lat="43.40834" lon="5.49881">
        <ele>553.75641645475</ele>
        <time>2018-05-23T08:05:51Z</time>
      </trkpt>
      <trkpt lat="43.40834" lon="5.49893">
        <ele>554.55258453918</ele>
        <time>2018-05-23T08:06:00Z</time>
      </trkpt>
      <trkpt lat="43.40837" lon="5.49904">
        <ele>555.32518525477</ele>
        <time>2018-05-23T08:06:09Z</time>
      </trkpt>
      <trkpt lat="43.40842" lon="5.49914">
        <ele>555.90229691551</ele>
        <time>2018-05-23T08:06:16Z</time>
      </trkpt>
      <trkpt lat="43.40846" lon="5.49924">
        <ele>556.5541100277</ele>
        <time>2018-05-23T08:06:25Z</time>
      </trkpt>
      <trkpt lat="43.40848" lon="5.49935">
        <ele>557.0096591323</ele>
        <time>2018-05-23T08:06:32Z</time>
      </trkpt>
      <trkpt lat="43.40846" lon="5.49947">
        <ele>557.48154738617</ele>
        <time>2018-05-23T08:06:40Z</time>
      </trkpt>
      <trkpt lat="43.40841" lon="5.49955">
        <ele>557.84992394103</ele>
        <time>2018-05-23T08:06:47Z</time>
      </trkpt>
      <trkpt lat="43.40833" lon="5.49963">
        <ele>558.24393921232</ele>
        <time>2018-05-23T08:06:55Z</time>
      </trkpt>
      <trkpt lat="43.40825" lon="5.49968">
        <ele>558.66004603496</ele>
        <time>2018-05-23T08:07:04Z</time>
      </trkpt>
      <trkpt lat="43.40818" lon="5.49973">
        <ele>558.92391459301</ele>
        <time>2018-05-23T08:07:10Z</time>
      </trkpt>
      <trkpt lat="43.4081" lon="5.49977">
        <ele>559.21219011714</ele>
        <time>2018-05-23T08:07:17Z</time>
      </trkpt>
      <trkpt lat="43.40802" lon="5.49982">
        <ele>559.47466961869</ele>
        <time>2018-05-23T08:07:24Z</time>
      </trkpt>
      <trkpt lat="43.40794" lon="5.49986">
        <ele>559.75759401061</ele>
        <time>2018-05-23T08:07:32Z</time>
      </trkpt>
      <trkpt lat="43.40788" lon="5.49995">
        <ele>560.0013731605</ele>
        <time>2018-05-23T08:07:39Z</time>
      </trkpt>
      <trkpt lat="43.40781" lon="5.50001">
        <ele>560.25040213121</ele>
        <time>2018-05-23T08:07:46Z</time>
      </trkpt>
      <trkpt lat="43.40774" lon="5.50007">
        <ele>560.43104433369</ele>
        <time>2018-05-23T08:07:51Z</time>
      </trkpt>
      <trkpt lat="43.40767" lon="5.50013">
        <ele>560.64194524205</ele>
        <time>2018-05-23T08:07:57Z</time>
      </trkpt>
      <trkpt lat="43.40759" lon="5.50016">
        <ele>560.87136220546</ele>
        <time>2018-05-23T08:08:04Z</time>
      </trkpt>
      <trkpt lat="43.40751" lon="5.50018">
        <ele>561.09760901997</ele>
        <time>2018-05-23T08:08:12Z</time>
      </trkpt>
      <trkpt lat="43.40744" lon="5.50023">
        <ele>561.32144239112</ele>
        <time>2018-05-23T08:08:20Z</time>
      </trkpt>
      <trkpt lat="43.40736" lon="5.50028">
        <ele>561.54265568671</ele>
        <time>2018-05-23T08:08:29Z</time>
      </trkpt>
      <trkpt lat="43.4073" lon="5.50035">
        <ele>561.65911887096</ele>
        <time>2018-05-23T08:08:35Z</time>
      </trkpt>
      <trkpt lat="43.40724" lon="5.50043">
        <ele>561.79324825468</ele>
        <time>2018-05-23T08:08:44Z</time>
      </trkpt>
      <trkpt lat="43.40718" lon="5.50053">
        <ele>561.88345534455</ele>
        <time>2018-05-23T08:08:52Z</time>
      </trkpt>
      <trkpt lat="43.40715" lon="5.50064">
        <ele>561.97597461762</ele>
        <time>2018-05-23T08:09:01Z</time>
      </trkpt>
      <trkpt lat="43.40715" lon="5.50076">
        <ele>562.07517544217</ele>
        <time>2018-05-23T08:09:11Z</time>
      </trkpt>
      <trkpt lat="43.40717" lon="5.50087">
        <ele>562.14435281473</ele>
        <time>2018-05-23T08:09:20Z</time>
      </trkpt>
      <trkpt lat="43.40717" lon="5.50098">
        <ele>562.1777266356</ele>
        <time>2018-05-23T08:09:25Z</time>
      </trkpt>
      <trkpt lat="43.40714" lon="5.50109">
        <ele>562.2282544422</ele>
        <time>2018-05-23T08:09:33Z</time>
      </trkpt>
      <trkpt lat="43.40712" lon="5.5012">
        <ele>562.26869202849</ele>
        <time>2018-05-23T08:09:39Z</time>
      </trkpt>
      <trkpt lat="43.40714" lon="5.50131">
        <ele>562.3142429111</ele>
        <time>2018-05-23T08:09:45Z</time>
      </trkpt>
      <trkpt lat="43.40715" lon="5.50143">
        <ele>562.37782817691</ele>
        <time>2018-05-23T08:09:53Z</time>
      </trkpt>
      <trkpt lat="43.40714" lon="5.50154">
        <ele>562.46299653911</ele>
        <time>2018-05-23T08:10:02Z</time>
      </trkpt>
      <trkpt lat="43.4071" lon="5.50165">
        <ele>562.54285018938</ele>
        <time>2018-05-23T08:10:10Z</time>
      </trkpt>
      <trkpt lat="43.40706" lon="5.50176">
        <ele>562.61383990861</ele>
        <time>2018-05-23T08:10:17Z</time>
      </trkpt>
      <trkpt lat="43.40702" lon="5.50187">
        <ele>562.69922403132</ele>
        <time>2018-05-23T08:10:25Z</time>
      </trkpt>
      <trkpt lat="43.40701" lon="5.50198">
        <ele>562.77665811676</ele>
        <time>2018-05-23T08:10:31Z</time>
      </trkpt>
      <trkpt lat="43.40699" lon="5.5021">
        <ele>562.91009436543</ele>
        <time>2018-05-23T08:10:39Z</time>
      </trkpt>
      <trkpt lat="43.40695" lon="5.5022">
        <ele>563.05181625259</ele>
        <time>2018-05-23T08:10:46Z</time>
      </trkpt>
      <trkpt lat="43.40693" lon="5.50231">
        <ele>563.23463783373</ele>
        <time>2018-05-23T08:10:54Z</time>
      </trkpt>
      <trkpt lat="43.4069" lon="5.50242">
        <ele>563.45304636741</ele>
        <time>2018-05-23T08:11:03Z</time>
      </trkpt>
      <trkpt lat="43.40689" lon="5.50253">
        <ele>563.61501999407</ele>
        <time>2018-05-23T08:11:10Z</time>
      </trkpt>
      <trkpt lat="43.40684" lon="5.50263">
        <ele>563.74885029921</ele>
        <time>2018-05-23T08:11:16Z</time>
      </trkpt>
      <trkpt lat="43.4068" lon="5.50272">
        <ele>563.88008472439</ele>
        <time>2018-05-23T08:11:22Z</time>
      </trkpt>
      <trkpt lat="43.40677" lon="5.50284">
        <ele>564.03758475398</ele>
        <time>2018-05-23T08:11:30Z</time>
      </trkpt>
      <trkpt lat="43.40677" lon="5.50296">
        <ele>564.22256551618</ele>
        <time>2018-05-23T08:11:41Z</time>
      </trkpt>
      <trkpt lat="43.40678" lon="5.50307">
        <ele>564.33811742561</ele>
        <time>2018-05-23T08:11:49Z</time>
      </trkpt>
      <trkpt lat="43.40678" lon="5.5032">
        <ele>564.46872589047</ele>
        <time>2018-05-23T08:11:59Z</time>
      </trkpt>
      <trkpt lat="43.40677" lon="5.50332">
        <ele>564.57202802839</ele>
        <time>2018-05-23T08:12:07Z</time>
      </trkpt>
      <trkpt lat="43.40673" lon="5.50342">
        <ele>564.71399228889</ele>
        <time>2018-05-23T08:12:18Z</time>
      </trkpt>
      <trkpt lat="43.40665" lon="5.50348">
        <ele>564.86569901109</ele>
        <time>2018-05-23T08:12:30Z</time>
      </trkpt>
      <trkpt lat="43.4066" lon="5.50358">
        <ele>564.99430788049</ele>
        <time>2018-05-23T08:12:40Z</time>
      </trkpt>
      <trkpt lat="43.40655" lon="5.50368">
        <ele>565.14811375245</ele>
        <time>2018-05-23T08:12:51Z</time>
      </trkpt>
      <trkpt lat="43.40655" lon="5.50379">
        <ele>565.29818195688</ele>
        <time>2018-05-23T08:13:00Z</time>
      </trkpt>
      <trkpt lat="43.40658" lon="5.5039">
        <ele>565.45325457104</ele>
        <time>2018-05-23T08:13:09Z</time>
      </trkpt>
      <trkpt lat="43.40662" lon="5.50401">
        <ele>565.65298748646</ele>
        <time>2018-05-23T08:13:18Z</time>
      </trkpt>
      <trkpt lat="43.40666" lon="5.50411">
        <ele>565.87824261468</ele>
        <time>2018-05-23T08:13:27Z</time>
      </trkpt>
      <trkpt lat="43.40669" lon="5.50422">
        <ele>566.16759584641</ele>
        <time>2018-05-23T08:13:37Z</time>
      </trkpt>
      <trkpt lat="43.40665" lon="5.50431">
        <ele>566.49602595276</ele>
        <time>2018-05-23T08:13:48Z</time>
      </trkpt>
      <trkpt lat="43.40661" lon="5.50442">
        <ele>566.71243142708</ele>
        <time>2018-05-23T08:13:56Z</time>
      </trkpt>
      <trkpt lat="43.40662" lon="5.50455">
        <ele>566.99670787071</ele>
        <time>2018-05-23T08:14:06Z</time>
      </trkpt>
      <trkpt lat="43.40663" lon="5.50466">
        <ele>567.31054130029</ele>
        <time>2018-05-23T08:14:16Z</time>
      </trkpt>
      <trkpt lat="43.40664" lon="5.50478">
        <ele>567.65424887645</ele>
        <time>2018-05-23T08:14:26Z</time>
      </trkpt>
      <trkpt lat="43.40664" lon="5.50489">
        <ele>567.99746441641</ele>
        <time>2018-05-23T08:14:35Z</time>
      </trkpt>
      <trkpt lat="43.40661" lon="5.505">
        <ele>568.49401838945</ele>
        <time>2018-05-23T08:14:47Z</time>
      </trkpt>
      <trkpt lat="43.40658" lon="5.50512">
        <ele>568.99090043574</ele>
        <time>2018-05-23T08:14:59Z</time>
      </trkpt>
      <trkpt lat="43.40658" lon="5.50523">
        <ele>569.25753780133</ele>
        <time>2018-05-23T08:15:06Z</time>
      </trkpt>
      <trkpt lat="43.40659" lon="5.50535">
        <ele>569.47081788158</ele>
        <time>2018-05-23T08:15:12Z</time>
      </trkpt>
      <trkpt lat="43.40661" lon="5.50546">
        <ele>569.70819006128</ele>
        <time>2018-05-23T08:15:19Z</time>
      </trkpt>
      <trkpt lat="43.40663" lon="5.50557">
        <ele>569.92809975218</ele>
        <time>2018-05-23T08:15:25Z</time>
      </trkpt>
      <trkpt lat="43.40665" lon="5.50569">
        <ele>570.35164007988</ele>
        <time>2018-05-23T08:15:35Z</time>
      </trkpt>
      <trkpt lat="43.40661" lon="5.50579">
        <ele>570.81916152998</ele>
        <time>2018-05-23T08:15:45Z</time>
      </trkpt>
      <trkpt lat="43.40656" lon="5.50588">
        <ele>571.32332937843</ele>
        <time>2018-05-23T08:15:55Z</time>
      </trkpt>
      <trkpt lat="43.40652" lon="5.50599">
        <ele>571.80160683498</ele>
        <time>2018-05-23T08:16:03Z</time>
      </trkpt>
      <trkpt lat="43.40651" lon="5.5061">
        <ele>572.43666195934</ele>
        <time>2018-05-23T08:16:12Z</time>
      </trkpt>
      <trkpt lat="43.40652" lon="5.50622">
        <ele>573.39893975394</ele>
        <time>2018-05-23T08:16:23Z</time>
      </trkpt>
      <trkpt lat="43.40655" lon="5.50633">
        <ele>574.38357307375</ele>
        <time>2018-05-23T08:16:33Z</time>
      </trkpt>
      <trkpt lat="43.40659" lon="5.50644">
        <ele>575.54531632226</ele>
        <time>2018-05-23T08:16:45Z</time>
      </trkpt>
      <trkpt lat="43.40659" lon="5.50656">
        <ele>584.30854608159</ele>
        <time>2018-05-23T08:19:43Z</time>
      </trkpt>
      <trkpt lat="43.40658" lon="5.50668">
        <ele>587.15264175346</ele>
        <time>2018-05-23T08:19:53Z</time>
      </trkpt>
      <trkpt lat="43.40658" lon="5.5068">
        <ele>589.97978968223</ele>
        <time>2018-05-23T08:20:05Z</time>
      </trkpt>
      <trkpt lat="43.40657" lon="5.50692">
        <ele>591.95227041547</ele>
        <time>2018-05-23T08:20:15Z</time>
      </trkpt>
      <trkpt lat="43.40659" lon="5.50703">
        <ele>594.40621583122</ele>
        <time>2018-05-23T08:20:29Z</time>
      </trkpt>
      <trkpt lat="43.40659" lon="5.50715">
        <ele>596.75795116083</ele>
        <time>2018-05-23T08:20:43Z</time>
      </trkpt>
      <trkpt lat="43.40658" lon="5.50726">
        <ele>598.94934313512</ele>
        <time>2018-05-23T08:20:57Z</time>
      </trkpt>
      <trkpt lat="43.40657" lon="5.50738">
        <ele>600.23955303649</ele>
        <time>2018-05-23T08:21:06Z</time>
      </trkpt>
      <trkpt lat="43.40656" lon="5.5075">
        <ele>601.83508348736</ele>
        <time>2018-05-23T08:21:18Z</time>
      </trkpt>
      <trkpt lat="43.40658" lon="5.50762">
        <ele>603.18112867338</ele>
        <time>2018-05-23T08:21:29Z</time>
      </trkpt>
      <trkpt lat="43.4066" lon="5.50773">
        <ele>604.46703152319</ele>
        <time>2018-05-23T08:21:40Z</time>
      </trkpt>
      <trkpt lat="43.40663" lon="5.50785">
        <ele>605.59666652881</ele>
        <time>2018-05-23T08:21:50Z</time>
      </trkpt>
      <trkpt lat="43.40664" lon="5.50797">
        <ele>606.70011443324</ele>
        <time>2018-05-23T08:22:00Z</time>
      </trkpt>
      <trkpt lat="43.40664" lon="5.50808">
        <ele>607.55484249349</ele>
        <time>2018-05-23T08:22:08Z</time>
      </trkpt>
      <trkpt lat="43.40665" lon="5.5082">
        <ele>608.66778606397</ele>
        <time>2018-05-23T08:22:19Z</time>
      </trkpt>
      <trkpt lat="43.40671" lon="5.50828">
        <ele>610.18435533781</ele>
        <time>2018-05-23T08:22:35Z</time>
      </trkpt>
      <trkpt lat="43.4068" lon="5.50827">
        <ele>611.50056378727</ele>
        <time>2018-05-23T08:22:49Z</time>
      </trkpt>
      <trkpt lat="43.40688" lon="5.50822">
        <ele>612.35875109068</ele>
        <time>2018-05-23T08:23:00Z</time>
      </trkpt>
      <trkpt lat="43.40695" lon="5.50815">
        <ele>613.26351330435</ele>
        <time>2018-05-23T08:23:13Z</time>
      </trkpt>
      <trkpt lat="43.40702" lon="5.50809">
        <ele>614.04855316734</ele>
        <time>2018-05-23T08:23:24Z</time>
      </trkpt>
      <trkpt lat="43.40708" lon="5.508">
        <ele>614.83645150201</ele>
        <time>2018-05-23T08:23:35Z</time>
      </trkpt>
      <trkpt lat="43.40715" lon="5.50795">
        <ele>615.57447818305</ele>
        <time>2018-05-23T08:23:46Z</time>
      </trkpt>
      <trkpt lat="43.40722" lon="5.50788">
        <ele>616.34424414484</ele>
        <time>2018-05-23T08:23:57Z</time>
      </trkpt>
      <trkpt lat="43.4073" lon="5.50782">
        <ele>617.24628278133</ele>
        <time>2018-05-23T08:24:09Z</time>
      </trkpt>
      <trkpt lat="43.40738" lon="5.50777">
        <ele>618.21360838471</ele>
        <time>2018-05-23T08:24:22Z</time>
      </trkpt>
      <trkpt lat="43.40745" lon="5.50771">
        <ele>618.93923130278</ele>
        <time>2018-05-23T08:24:32Z</time>
      </trkpt>
      <trkpt lat="43.40753" lon="5.50767">
        <ele>619.69609373151</ele>
        <time>2018-05-23T08:24:43Z</time>
      </trkpt>
      <trkpt lat="43.40761" lon="5.50764">
        <ele>620.43334380732</ele>
        <time>2018-05-23T08:24:54Z</time>
      </trkpt>
      <trkpt lat="43.40769" lon="5.50768">
        <ele>621.5473791411</ele>
        <time>2018-05-23T08:25:18Z</time>
      </trkpt>
      <trkpt lat="43.40777" lon="5.50772">
        <ele>622.09234873844</ele>
        <time>2018-05-23T08:25:27Z</time>
      </trkpt>
      <trkpt lat="43.40785" lon="5.50777">
        <ele>622.6092730286</ele>
        <time>2018-05-23T08:25:36Z</time>
      </trkpt>
      <trkpt lat="43.40791" lon="5.50785">
        <ele>624.39968096307</ele>
        <time>2018-05-23T08:27:22Z</time>
      </trkpt>
      <trkpt lat="43.40796" lon="5.50795">
        <ele>625.41902507908</ele>
        <time>2018-05-23T08:27:33Z</time>
      </trkpt>
      <trkpt lat="43.408" lon="5.50804">
        <ele>626.17629327391</ele>
        <time>2018-05-23T08:27:42Z</time>
      </trkpt>
      <trkpt lat="43.40807" lon="5.5081">
        <ele>627.11921180366</ele>
        <time>2018-05-23T08:27:54Z</time>
      </trkpt>
      <trkpt lat="43.40815" lon="5.50813">
        <ele>627.8294948433</ele>
        <time>2018-05-23T08:28:02Z</time>
      </trkpt>
      <trkpt lat="43.40823" lon="5.50817">
        <ele>628.91843613524</ele>
        <time>2018-05-23T08:28:12Z</time>
      </trkpt>
      <trkpt lat="43.4083" lon="5.50824">
        <ele>629.8670119067</ele>
        <time>2018-05-23T08:28:20Z</time>
      </trkpt>
      <trkpt lat="43.40833" lon="5.50834">
        <ele>630.83572641276</ele>
        <time>2018-05-23T08:28:28Z</time>
      </trkpt>
      <trkpt lat="43.40832" lon="5.50846">
        <ele>631.83241189825</ele>
        <time>2018-05-23T08:28:36Z</time>
      </trkpt>
      <trkpt lat="43.40832" lon="5.50857">
        <ele>633.22034133343</ele>
        <time>2018-05-23T08:28:47Z</time>
      </trkpt>
      <trkpt lat="43.40834" lon="5.50869">
        <ele>634.57884670516</ele>
        <time>2018-05-23T08:28:58Z</time>
      </trkpt>
      <trkpt lat="43.40837" lon="5.50879">
        <ele>635.53289730727</ele>
        <time>2018-05-23T08:29:06Z</time>
      </trkpt>
      <trkpt lat="43.40838" lon="5.5089">
        <ele>636.58174614147</ele>
        <time>2018-05-23T08:29:15Z</time>
      </trkpt>
      <trkpt lat="43.40838" lon="5.50903">
        <ele>637.73581460485</ele>
        <time>2018-05-23T08:29:25Z</time>
      </trkpt>
      <trkpt lat="43.40837" lon="5.50914">
        <ele>638.84637047302</ele>
        <time>2018-05-23T08:29:35Z</time>
      </trkpt>
      <trkpt lat="43.40837" lon="5.50926">
        <ele>640.01940556497</ele>
        <time>2018-05-23T08:29:46Z</time>
      </trkpt>
      <trkpt lat="43.40835" lon="5.50938">
        <ele>641.07105520203</ele>
        <time>2018-05-23T08:29:56Z</time>
      </trkpt>
      <trkpt lat="43.4084" lon="5.50947">
        <ele>642.26187439332</ele>
        <time>2018-05-23T08:30:08Z</time>
      </trkpt>
      <trkpt lat="43.40847" lon="5.50952">
        <ele>642.99382332211</ele>
        <time>2018-05-23T08:30:16Z</time>
      </trkpt>
      <trkpt lat="43.40854" lon="5.50959">
        <ele>643.91404889861</ele>
        <time>2018-05-23T08:30:27Z</time>
      </trkpt>
      <trkpt lat="43.40862" lon="5.50964">
        <ele>644.77585570898</ele>
        <time>2018-05-23T08:30:38Z</time>
      </trkpt>
      <trkpt lat="43.4087" lon="5.50971">
        <ele>645.44236190657</ele>
        <time>2018-05-23T08:30:47Z</time>
      </trkpt>
      <trkpt lat="43.40876" lon="5.50979">
        <ele>646.01094085618</ele>
        <time>2018-05-23T08:30:55Z</time>
      </trkpt>
      <trkpt lat="43.40881" lon="5.50988">
        <ele>646.55550004938</ele>
        <time>2018-05-23T08:31:03Z</time>
      </trkpt>
      <trkpt lat="43.40887" lon="5.50997">
        <ele>647.28692956209</ele>
        <time>2018-05-23T08:31:14Z</time>
      </trkpt>
      <trkpt lat="43.40888" lon="5.51008">
        <ele>652.1487885064</ele>
        <time>2018-05-23T08:34:26Z</time>
      </trkpt>
      <trkpt lat="43.40892" lon="5.51019">
        <ele>653.10892790987</ele>
        <time>2018-05-23T08:34:37Z</time>
      </trkpt>
      <trkpt lat="43.40896" lon="5.51029">
        <ele>654.00575733577</ele>
        <time>2018-05-23T08:34:49Z</time>
      </trkpt>
      <trkpt lat="43.409" lon="5.5104">
        <ele>654.71754467877</ele>
        <time>2018-05-23T08:35:00Z</time>
      </trkpt>
      <trkpt lat="43.409" lon="5.51052">
        <ele>655.30951467746</ele>
        <time>2018-05-23T08:35:10Z</time>
      </trkpt>
      <trkpt lat="43.40901" lon="5.51063">
        <ele>655.70394238893</ele>
        <time>2018-05-23T08:35:17Z</time>
      </trkpt>
      <trkpt lat="43.40905" lon="5.51073">
        <ele>656.35818168126</ele>
        <time>2018-05-23T08:35:29Z</time>
      </trkpt>
      <trkpt lat="43.40911" lon="5.51082">
        <ele>656.88909831097</ele>
        <time>2018-05-23T08:35:39Z</time>
      </trkpt>
      <trkpt lat="43.40913" lon="5.51094">
        <ele>657.30776096887</ele>
        <time>2018-05-23T08:35:47Z</time>
      </trkpt>
      <trkpt lat="43.40915" lon="5.51105">
        <ele>657.81484956033</ele>
        <time>2018-05-23T08:35:57Z</time>
      </trkpt>
      <trkpt lat="43.40916" lon="5.51116">
        <ele>658.41177481466</ele>
        <time>2018-05-23T08:36:10Z</time>
      </trkpt>
      <trkpt lat="43.40915" lon="5.51128">
        <ele>658.71890471752</ele>
        <time>2018-05-23T08:36:17Z</time>
      </trkpt>
      <trkpt lat="43.40916" lon="5.5114">
        <ele>659.28461947136</ele>
        <time>2018-05-23T08:36:30Z</time>
      </trkpt>
      <trkpt lat="43.40919" lon="5.51151">
        <ele>659.79865074211</ele>
        <time>2018-05-23T08:36:42Z</time>
      </trkpt>
      <trkpt lat="43.4092" lon="5.51163">
        <ele>660.32018455689</ele>
        <time>2018-05-23T08:36:54Z</time>
      </trkpt>
      <trkpt lat="43.40915" lon="5.51173">
        <ele>661.62057516158</ele>
        <time>2018-05-23T08:37:37Z</time>
      </trkpt>
      <trkpt lat="43.40912" lon="5.51184">
        <ele>662.97118612106</ele>
        <time>2018-05-23T08:38:15Z</time>
      </trkpt>
      <trkpt lat="43.40909" lon="5.51196">
        <ele>663.62558620409</ele>
        <time>2018-05-23T08:38:24Z</time>
      </trkpt>
      <trkpt lat="43.40906" lon="5.51207">
        <ele>664.18685603532</ele>
        <time>2018-05-23T08:38:33Z</time>
      </trkpt>
      <trkpt lat="43.40905" lon="5.51218">
        <ele>665.48843339005</ele>
        <time>2018-05-23T08:39:03Z</time>
      </trkpt>
      <trkpt lat="43.40903" lon="5.51229">
        <ele>666.13844055779</ele>
        <time>2018-05-23T08:39:13Z</time>
      </trkpt>
      <trkpt lat="43.409" lon="5.5124">
        <ele>666.81181443658</ele>
        <time>2018-05-23T08:39:24Z</time>
      </trkpt>
      <trkpt lat="43.40896" lon="5.51251">
        <ele>667.27947104636</ele>
        <time>2018-05-23T08:39:32Z</time>
      </trkpt>
      <trkpt lat="43.40897" lon="5.51263">
        <ele>667.88477010823</ele>
        <time>2018-05-23T08:39:43Z</time>
      </trkpt>
      <trkpt lat="43.40895" lon="5.51275">
        <ele>668.30334277927</ele>
        <time>2018-05-23T08:39:51Z</time>
      </trkpt>
      <trkpt lat="43.40893" lon="5.51286">
        <ele>668.90093359577</ele>
        <time>2018-05-23T08:40:04Z</time>
      </trkpt>
      <trkpt lat="43.40889" lon="5.51297">
        <ele>669.37478962833</ele>
        <time>2018-05-23T08:40:14Z</time>
      </trkpt>
      <trkpt lat="43.40884" lon="5.51307">
        <ele>669.79152507632</ele>
        <time>2018-05-23T08:40:23Z</time>
      </trkpt>
      <trkpt lat="43.40877" lon="5.51314">
        <ele>670.22548387044</ele>
        <time>2018-05-23T08:40:33Z</time>
      </trkpt>
      <trkpt lat="43.4087" lon="5.51319">
        <ele>670.54383138289</ele>
        <time>2018-05-23T08:40:41Z</time>
      </trkpt>
      <trkpt lat="43.40862" lon="5.51322">
        <ele>671.0621940817</ele>
        <time>2018-05-23T08:41:05Z</time>
      </trkpt>
      <trkpt lat="43.40857" lon="5.51332">
        <ele>671.33665233517</ele>
        <time>2018-05-23T08:41:13Z</time>
      </trkpt>
      <trkpt lat="43.40855" lon="5.51343">
        <ele>671.60644806812</ele>
        <time>2018-05-23T08:41:21Z</time>
      </trkpt>
      <trkpt lat="43.40851" lon="5.51354">
        <ele>671.880375819</ele>
        <time>2018-05-23T08:41:29Z</time>
      </trkpt>
      <trkpt lat="43.40849" lon="5.51365">
        <ele>672.16560344594</ele>
        <time>2018-05-23T08:41:37Z</time>
      </trkpt>
      <trkpt lat="43.40847" lon="5.51376">
        <ele>672.43594264519</ele>
        <time>2018-05-23T08:41:44Z</time>
      </trkpt>
      <trkpt lat="43.40845" lon="5.51388">
        <ele>673.00465921135</ele>
        <time>2018-05-23T08:41:58Z</time>
      </trkpt>
      <trkpt lat="43.40843" lon="5.51398">
        <ele>673.29376196301</ele>
        <time>2018-05-23T08:42:05Z</time>
      </trkpt>
      <trkpt lat="43.4084" lon="5.51408">
        <ele>673.55120312071</ele>
        <time>2018-05-23T08:42:11Z</time>
      </trkpt>
      <trkpt lat="43.40835" lon="5.51417">
        <ele>673.90783773631</ele>
        <time>2018-05-23T08:42:19Z</time>
      </trkpt>
      <trkpt lat="43.40831" lon="5.51427">
        <ele>674.41784396308</ele>
        <time>2018-05-23T08:42:30Z</time>
      </trkpt>
      <trkpt lat="43.40827" lon="5.51437">
        <ele>674.83099584103</ele>
        <time>2018-05-23T08:42:39Z</time>
      </trkpt>
      <trkpt lat="43.4082" lon="5.51444">
        <ele>675.17007966981</ele>
        <time>2018-05-23T08:42:47Z</time>
      </trkpt>
      <trkpt lat="43.40813" lon="5.5145">
        <ele>675.51261442887</ele>
        <time>2018-05-23T08:42:56Z</time>
      </trkpt>
      <trkpt lat="43.40806" lon="5.51457">
        <ele>675.82755522869</ele>
        <time>2018-05-23T08:43:05Z</time>
      </trkpt>
      <trkpt lat="43.40799" lon="5.51463">
        <ele>676.0891417525</ele>
        <time>2018-05-23T08:43:13Z</time>
      </trkpt>
      <trkpt lat="43.40791" lon="5.51467">
        <ele>676.30808106195</ele>
        <time>2018-05-23T08:43:20Z</time>
      </trkpt>
      <trkpt lat="43.40783" lon="5.51467">
        <ele>676.52001983582</ele>
        <time>2018-05-23T08:43:27Z</time>
      </trkpt>
      <trkpt lat="43.40775" lon="5.51463">
        <ele>676.75174444875</ele>
        <time>2018-05-23T08:43:35Z</time>
      </trkpt>
      <trkpt lat="43.40767" lon="5.51459">
        <ele>677.00385065679</ele>
        <time>2018-05-23T08:43:44Z</time>
      </trkpt>
      <trkpt lat="43.40761" lon="5.51452">
        <ele>677.25785436276</ele>
        <time>2018-05-23T08:43:53Z</time>
      </trkpt>
      <trkpt lat="43.40753" lon="5.51449">
        <ele>677.47588057852</ele>
        <time>2018-05-23T08:44:01Z</time>
      </trkpt>
      <trkpt lat="43.40745" lon="5.51445">
        <ele>677.69192993633</ele>
        <time>2018-05-23T08:44:10Z</time>
      </trkpt>
      <trkpt lat="43.40736" lon="5.51443">
        <ele>677.94524732846</ele>
        <time>2018-05-23T08:44:21Z</time>
      </trkpt>
      <trkpt lat="43.4073" lon="5.5145">
        <ele>678.15227179761</ele>
        <time>2018-05-23T08:44:30Z</time>
      </trkpt>
      <trkpt lat="43.40727" lon="5.5146">
        <ele>678.34792927003</ele>
        <time>2018-05-23T08:44:37Z</time>
      </trkpt>
      <trkpt lat="43.40727" lon="5.51472">
        <ele>678.64146757852</ele>
        <time>2018-05-23T08:44:45Z</time>
      </trkpt>
      <trkpt lat="43.40724" lon="5.51483">
        <ele>679.09826894078</ele>
        <time>2018-05-23T08:44:54Z</time>
      </trkpt>
      <trkpt lat="43.40721" lon="5.51494">
        <ele>679.59853785341</ele>
        <time>2018-05-23T08:45:02Z</time>
      </trkpt>
      <trkpt lat="43.40718" lon="5.51505">
        <ele>680.14407249693</ele>
        <time>2018-05-23T08:45:10Z</time>
      </trkpt>
      <trkpt lat="43.40714" lon="5.51516">
        <ele>680.71496220038</ele>
        <time>2018-05-23T08:45:18Z</time>
      </trkpt>
      <trkpt lat="43.40712" lon="5.51526">
        <ele>681.21685725677</ele>
        <time>2018-05-23T08:45:25Z</time>
      </trkpt>
      <trkpt lat="43.40709" lon="5.51537">
        <ele>681.88471302502</ele>
        <time>2018-05-23T08:45:33Z</time>
      </trkpt>
      <trkpt lat="43.40707" lon="5.51548">
        <ele>682.56811752073</ele>
        <time>2018-05-23T08:45:39Z</time>
      </trkpt>
      <trkpt lat="43.40704" lon="5.51559">
        <ele>683.69745378368</ele>
        <time>2018-05-23T08:45:48Z</time>
      </trkpt>
      <trkpt lat="43.40696" lon="5.51564">
        <ele>684.64872364451</ele>
        <time>2018-05-23T08:45:56Z</time>
      </trkpt>
      <trkpt lat="43.40687" lon="5.51561">
        <ele>685.58706770347</ele>
        <time>2018-05-23T08:46:05Z</time>
      </trkpt>
      <trkpt lat="43.4068" lon="5.51554">
        <ele>686.31419535963</ele>
        <time>2018-05-23T08:46:13Z</time>
      </trkpt>
      <trkpt lat="43.40674" lon="5.51547">
        <ele>687.02342172833</ele>
        <time>2018-05-23T08:46:22Z</time>
      </trkpt>
      <trkpt lat="43.40665" lon="5.51541">
        <ele>687.69759065</ele>
        <time>2018-05-23T08:46:32Z</time>
      </trkpt>
      <trkpt lat="43.40658" lon="5.51536">
        <ele>688.17898466738</ele>
        <time>2018-05-23T08:46:40Z</time>
      </trkpt>
      <trkpt lat="43.40651" lon="5.5153">
        <ele>688.67474536471</ele>
        <time>2018-05-23T08:46:49Z</time>
      </trkpt>
      <trkpt lat="43.40645" lon="5.51523">
        <ele>689.12399190137</ele>
        <time>2018-05-23T08:46:58Z</time>
      </trkpt>
      <trkpt lat="43.40639" lon="5.51515">
        <ele>689.52476713984</ele>
        <time>2018-05-23T08:47:07Z</time>
      </trkpt>
      <trkpt lat="43.40631" lon="5.51509">
        <ele>689.98665870724</ele>
        <time>2018-05-23T08:47:18Z</time>
      </trkpt>
      <trkpt lat="43.40624" lon="5.51502">
        <ele>690.30899865445</ele>
        <time>2018-05-23T08:47:26Z</time>
      </trkpt>
      <trkpt lat="43.40617" lon="5.51496">
        <ele>690.59145358737</ele>
        <time>2018-05-23T08:47:34Z</time>
      </trkpt>
      <trkpt lat="43.4061" lon="5.51488">
        <ele>690.83191179439</ele>
        <time>2018-05-23T08:47:42Z</time>
      </trkpt>
      <trkpt lat="43.40606" lon="5.51478">
        <ele>691.07664584333</ele>
        <time>2018-05-23T08:47:52Z</time>
      </trkpt>
      <trkpt lat="43.40601" lon="5.51469">
        <ele>691.26190924802</ele>
        <time>2018-05-23T08:48:01Z</time>
      </trkpt>
      <trkpt lat="43.40594" lon="5.51461">
        <ele>691.41938946353</ele>
        <time>2018-05-23T08:48:10Z</time>
      </trkpt>
      <trkpt lat="43.40588" lon="5.51453">
        <ele>691.56248755273</ele>
        <time>2018-05-23T08:48:18Z</time>
      </trkpt>
      <trkpt lat="43.40582" lon="5.51444">
        <ele>691.73814148946</ele>
        <time>2018-05-23T08:48:27Z</time>
      </trkpt>
      <trkpt lat="43.40576" lon="5.51436">
        <ele>691.92585130353</ele>
        <time>2018-05-23T08:48:36Z</time>
      </trkpt>
      <trkpt lat="43.40569" lon="5.5143">
        <ele>692.10292133149</ele>
        <time>2018-05-23T08:48:44Z</time>
      </trkpt>
      <trkpt lat="43.40562" lon="5.51425">
        <ele>692.30736393201</ele>
        <time>2018-05-23T08:48:53Z</time>
      </trkpt>
      <trkpt lat="43.40553" lon="5.51426">
        <ele>692.49711139599</ele>
        <time>2018-05-23T08:49:01Z</time>
      </trkpt>
      <trkpt lat="43.40545" lon="5.5143">
        <ele>692.7032007788</ele>
        <time>2018-05-23T08:49:09Z</time>
      </trkpt>
      <trkpt lat="43.40537" lon="5.51434">
        <ele>692.91449864841</ele>
        <time>2018-05-23T08:49:17Z</time>
      </trkpt>
      <trkpt lat="43.4053" lon="5.51441">
        <ele>693.19454186413</ele>
        <time>2018-05-23T08:49:27Z</time>
      </trkpt>
      <trkpt lat="43.40525" lon="5.5145">
        <ele>693.49123677869</ele>
        <time>2018-05-23T08:49:37Z</time>
      </trkpt>
      <trkpt lat="43.40521" lon="5.51461">
        <ele>693.90570794197</ele>
        <time>2018-05-23T08:49:50Z</time>
      </trkpt>
      <trkpt lat="43.40515" lon="5.51468">
        <ele>694.09286978536</ele>
        <time>2018-05-23T08:49:56Z</time>
      </trkpt>
      <trkpt lat="43.40509" lon="5.51477">
        <ele>694.31724047885</ele>
        <time>2018-05-23T08:50:03Z</time>
      </trkpt>
      <trkpt lat="43.40504" lon="5.51487">
        <ele>694.5507906589</ele>
        <time>2018-05-23T08:50:10Z</time>
      </trkpt>
      <trkpt lat="43.405" lon="5.51496">
        <ele>694.82492149671</ele>
        <time>2018-05-23T08:50:18Z</time>
      </trkpt>
      <trkpt lat="43.40496" lon="5.51507">
        <ele>695.06261606967</ele>
        <time>2018-05-23T08:50:25Z</time>
      </trkpt>
      <trkpt lat="43.40491" lon="5.51518">
        <ele>695.37168060497</ele>
        <time>2018-05-23T08:50:35Z</time>
      </trkpt>
      <trkpt lat="43.40486" lon="5.51526">
        <ele>695.62157791667</ele>
        <time>2018-05-23T08:50:44Z</time>
      </trkpt>
      <trkpt lat="43.40479" lon="5.51533">
        <ele>695.85448076869</ele>
        <time>2018-05-23T08:50:54Z</time>
      </trkpt>
      <trkpt lat="43.40474" lon="5.51542">
        <ele>696.00752753499</ele>
        <time>2018-05-23T08:51:03Z</time>
      </trkpt>
      <trkpt lat="43.4047" lon="5.51553">
        <ele>696.10842338103</ele>
        <time>2018-05-23T08:51:11Z</time>
      </trkpt>
      <trkpt lat="43.40466" lon="5.51563">
        <ele>696.18820912863</ele>
        <time>2018-05-23T08:51:19Z</time>
      </trkpt>
      <trkpt lat="43.40463" lon="5.51574">
        <ele>696.24853792566</ele>
        <time>2018-05-23T08:51:27Z</time>
      </trkpt>
      <trkpt lat="43.40461" lon="5.51586">
        <ele>696.29193278736</ele>
        <time>2018-05-23T08:51:36Z</time>
      </trkpt>
      <trkpt lat="43.40454" lon="5.51593">
        <ele>696.31932002171</ele>
        <time>2018-05-23T08:51:49Z</time>
      </trkpt>
      <trkpt lat="43.40449" lon="5.51601">
        <ele>696.31533716216</ele>
        <time>2018-05-23T08:51:56Z</time>
      </trkpt>
      <trkpt lat="43.40445" lon="5.51612">
        <ele>696.29509127766</ele>
        <time>2018-05-23T08:52:03Z</time>
      </trkpt>
      <trkpt lat="43.40443" lon="5.51624">
        <ele>696.26200995363</ele>
        <time>2018-05-23T08:52:11Z</time>
      </trkpt>
      <trkpt lat="43.4044" lon="5.51635">
        <ele>696.22455255335</ele>
        <time>2018-05-23T08:52:19Z</time>
      </trkpt>
      <trkpt lat="43.40438" lon="5.51647">
        <ele>696.18673736874</ele>
        <time>2018-05-23T08:52:28Z</time>
      </trkpt>
      <trkpt lat="43.40435" lon="5.51658">
        <ele>696.15743612277</ele>
        <time>2018-05-23T08:52:36Z</time>
      </trkpt>
      <trkpt lat="43.40432" lon="5.51668">
        <ele>696.13160049687</ele>
        <time>2018-05-23T08:52:43Z</time>
      </trkpt>
      <trkpt lat="43.40429" lon="5.5168">
        <ele>696.08539056135</ele>
        <time>2018-05-23T08:52:52Z</time>
      </trkpt>
      <trkpt lat="43.40425" lon="5.51689">
        <ele>696.04271177438</ele>
        <time>2018-05-23T08:52:59Z</time>
      </trkpt>
      <trkpt lat="43.40421" lon="5.517">
        <ele>695.97722908712</ele>
        <time>2018-05-23T08:53:07Z</time>
      </trkpt>
      <trkpt lat="43.40415" lon="5.51707">
        <ele>695.90032117307</ele>
        <time>2018-05-23T08:53:14Z</time>
      </trkpt>
      <trkpt lat="43.40407" lon="5.51713">
        <ele>695.80250644688</ele>
        <time>2018-05-23T08:53:21Z</time>
      </trkpt>
      <trkpt lat="43.40399" lon="5.51717">
        <ele>695.73590886209</ele>
        <time>2018-05-23T08:53:25Z</time>
      </trkpt>
      <trkpt lat="43.40392" lon="5.51721">
        <ele>695.60931189185</ele>
        <time>2018-05-23T08:53:32Z</time>
      </trkpt>
      <trkpt lat="43.40385" lon="5.51728">
        <ele>695.4506835161</ele>
        <time>2018-05-23T08:53:40Z</time>
      </trkpt>
      <trkpt lat="43.40378" lon="5.51736">
        <ele>695.22587296081</ele>
        <time>2018-05-23T08:53:51Z</time>
      </trkpt>
      <trkpt lat="43.40373" lon="5.51745">
        <ele>695.0284885486</ele>
        <time>2018-05-23T08:54:09Z</time>
      </trkpt>
      <trkpt lat="43.4037" lon="5.51756">
        <ele>694.70686245499</ele>
        <time>2018-05-23T08:54:33Z</time>
      </trkpt>
      <trkpt lat="43.40367" lon="5.51767">
        <ele>694.47404432682</ele>
        <time>2018-05-23T08:54:43Z</time>
      </trkpt>
      <trkpt lat="43.40363" lon="5.51777">
        <ele>694.28220530687</ele>
        <time>2018-05-23T08:54:52Z</time>
      </trkpt>
      <trkpt lat="43.40357" lon="5.51786">
        <ele>694.13074375281</ele>
        <time>2018-05-23T08:55:00Z</time>
      </trkpt>
      <trkpt lat="43.4035" lon="5.51793">
        <ele>693.97886691066</ele>
        <time>2018-05-23T08:55:09Z</time>
      </trkpt>
      <trkpt lat="43.40342" lon="5.51798">
        <ele>693.83057861578</ele>
        <time>2018-05-23T08:55:19Z</time>
      </trkpt>
      <trkpt lat="43.40335" lon="5.51801">
        <ele>693.74451587661</ele>
        <time>2018-05-23T08:55:25Z</time>
      </trkpt>
      <trkpt lat="43.40326" lon="5.51803">
        <ele>693.6448258641</ele>
        <time>2018-05-23T08:55:32Z</time>
      </trkpt>
      <trkpt lat="43.40319" lon="5.51807">
        <ele>693.55965685072</ele>
        <time>2018-05-23T08:55:38Z</time>
      </trkpt>
      <trkpt lat="43.4031" lon="5.51808">
        <ele>693.45807160269</ele>
        <time>2018-05-23T08:55:45Z</time>
      </trkpt>
      <trkpt lat="43.40302" lon="5.51811">
        <ele>693.12127350045</ele>
        <time>2018-05-23T08:56:12Z</time>
      </trkpt>
      <trkpt lat="43.4031" lon="5.51809">
        <ele>690.89612894467</ele>
        <time>2018-05-23T09:01:26Z</time>
      </trkpt>
      <trkpt lat="43.40318" lon="5.51804">
        <ele>690.65347334351</ele>
        <time>2018-05-23T09:01:35Z</time>
      </trkpt>
      <trkpt lat="43.40326" lon="5.51802">
        <ele>690.44411282624</ele>
        <time>2018-05-23T09:01:44Z</time>
      </trkpt>
      <trkpt lat="43.40334" lon="5.51799">
        <ele>690.27777781795</ele>
        <time>2018-05-23T09:01:52Z</time>
      </trkpt>
      <trkpt lat="43.40342" lon="5.51797">
        <ele>690.06693306519</ele>
        <time>2018-05-23T09:02:04Z</time>
      </trkpt>
      <trkpt lat="43.40349" lon="5.51791">
        <ele>689.92038342469</ele>
        <time>2018-05-23T09:02:13Z</time>
      </trkpt>
      <trkpt lat="43.40355" lon="5.51782">
        <ele>689.78739870979</ele>
        <time>2018-05-23T09:02:22Z</time>
      </trkpt>
      <trkpt lat="43.40359" lon="5.51772">
        <ele>689.66582338774</ele>
        <time>2018-05-23T09:02:31Z</time>
      </trkpt>
      <trkpt lat="43.40363" lon="5.51761">
        <ele>689.54766783857</ele>
        <time>2018-05-23T09:02:40Z</time>
      </trkpt>
      <trkpt lat="43.40366" lon="5.5175">
        <ele>689.44747696723</ele>
        <time>2018-05-23T09:02:47Z</time>
      </trkpt>
      <trkpt lat="43.4037" lon="5.51739">
        <ele>689.27175909704</ele>
        <time>2018-05-23T09:02:58Z</time>
      </trkpt>
      <trkpt lat="43.40377" lon="5.51732">
        <ele>689.12569631347</ele>
        <time>2018-05-23T09:03:07Z</time>
      </trkpt>
      <trkpt lat="43.40379" lon="5.5172">
        <ele>688.76609834835</ele>
        <time>2018-05-23T09:03:41Z</time>
      </trkpt>
      <trkpt lat="43.40384" lon="5.5171">
        <ele>688.71511150293</ele>
        <time>2018-05-23T09:03:55Z</time>
      </trkpt>
      <trkpt lat="43.40389" lon="5.517">
        <ele>688.71732598698</ele>
        <time>2018-05-23T09:04:25Z</time>
      </trkpt>
      <trkpt lat="43.40397" lon="5.51694">
        <ele>688.7859954234</ele>
        <time>2018-05-23T09:04:48Z</time>
      </trkpt>
      <trkpt lat="43.40398" lon="5.51682">
        <ele>688.86036704842</ele>
        <time>2018-05-23T09:05:00Z</time>
      </trkpt>
      <trkpt lat="43.40404" lon="5.51673">
        <ele>688.98675346059</ele>
        <time>2018-05-23T09:05:15Z</time>
      </trkpt>
      <trkpt lat="43.40408" lon="5.51662">
        <ele>689.06468688961</ele>
        <time>2018-05-23T09:05:24Z</time>
      </trkpt>
      <trkpt lat="43.40407" lon="5.5165">
        <ele>689.24213908721</ele>
        <time>2018-05-23T09:05:47Z</time>
      </trkpt>
      <trkpt lat="43.40408" lon="5.51639">
        <ele>689.43881735493</ele>
        <time>2018-05-23T09:06:03Z</time>
      </trkpt>
      <trkpt lat="43.40408" lon="5.51627">
        <ele>689.80211100902</ele>
        <time>2018-05-23T09:06:40Z</time>
      </trkpt>
      <trkpt lat="43.40413" lon="5.51617">
        <ele>690.27925630549</ele>
        <time>2018-05-23T09:07:07Z</time>
      </trkpt>
      <trkpt lat="43.40412" lon="5.51605">
        <ele>690.65569998846</ele>
        <time>2018-05-23T09:07:21Z</time>
      </trkpt>
      <trkpt lat="43.40411" lon="5.51594">
        <ele>691.13857474947</ele>
        <time>2018-05-23T09:07:49Z</time>
      </trkpt>
      <trkpt lat="43.40419" lon="5.51586">
        <ele>691.63372732798</ele>
        <time>2018-05-23T09:08:19Z</time>
      </trkpt>
      <trkpt lat="43.40422" lon="5.51575">
        <ele>692.11931003345</ele>
        <time>2018-05-23T09:09:07Z</time>
      </trkpt>
      <trkpt lat="43.40419" lon="5.51564">
        <ele>692.5060739139</ele>
        <time>2018-05-23T09:09:34Z</time>
      </trkpt>
      <trkpt lat="43.40425" lon="5.51558">
        <ele>692.67300613487</ele>
        <time>2018-05-23T09:09:44Z</time>
      </trkpt>
      <trkpt lat="43.40423" lon="5.51547">
        <ele>693.41209453605</ele>
        <time>2018-05-23T09:10:12Z</time>
      </trkpt>
      <trkpt lat="43.40425" lon="5.51536">
        <ele>694.05137698332</ele>
        <time>2018-05-23T09:10:31Z</time>
      </trkpt>
      <trkpt lat="43.40431" lon="5.51527">
        <ele>694.61665738748</ele>
        <time>2018-05-23T09:10:51Z</time>
      </trkpt>
      <trkpt lat="43.40432" lon="5.51515">
        <ele>695.54915857626</ele>
        <time>2018-05-23T09:11:23Z</time>
      </trkpt>
      <trkpt lat="43.40426" lon="5.51506">
        <ele>696.76637079587</ele>
        <time>2018-05-23T09:11:56Z</time>
      </trkpt>
      <trkpt lat="43.40431" lon="5.51496">
        <ele>698.88821350262</ele>
        <time>2018-05-23T09:12:43Z</time>
      </trkpt>
      <trkpt lat="43.40434" lon="5.51485">
        <ele>700.10136288704</ele>
        <time>2018-05-23T09:13:08Z</time>
      </trkpt>
      <trkpt lat="43.40433" lon="5.51473">
        <ele>700.93430381691</ele>
        <time>2018-05-23T09:13:48Z</time>
      </trkpt>
      <trkpt lat="43.40434" lon="5.51461">
        <ele>701.53677734126</ele>
        <time>2018-05-23T09:14:10Z</time>
      </trkpt>
      <trkpt lat="43.40435" lon="5.51449">
        <ele>703.20572248255</ele>
        <time>2018-05-23T09:15:16Z</time>
      </trkpt>
      <trkpt lat="43.40437" lon="5.51437">
        <ele>703.91477232255</ele>
        <time>2018-05-23T09:15:41Z</time>
      </trkpt>
      <trkpt lat="43.40439" lon="5.51426">
        <ele>704.97559619795</ele>
        <time>2018-05-23T09:16:21Z</time>
      </trkpt>
      <trkpt lat="43.4044" lon="5.51414">
        <ele>705.67362017527</ele>
        <time>2018-05-23T09:16:41Z</time>
      </trkpt>
      <trkpt lat="43.40438" lon="5.51402">
        <ele>706.28572314523</ele>
        <time>2018-05-23T09:17:09Z</time>
      </trkpt>
      <trkpt lat="43.40432" lon="5.51394">
        <ele>708.67998624226</ele>
        <time>2018-05-23T09:18:48Z</time>
      </trkpt>
      <trkpt lat="43.40439" lon="5.51389">
        <ele>714.64247542244</ele>
        <time>2018-05-23T09:21:57Z</time>
      </trkpt>
      <trkpt lat="43.40447" lon="5.51393">
        <ele>719.52959570895</ele>
        <time>2018-05-23T09:23:12Z</time>
      </trkpt>
      <trkpt lat="43.40455" lon="5.51399">
        <ele>720.64933446106</ele>
        <time>2018-05-23T09:23:46Z</time>
      </trkpt>
      <trkpt lat="43.40458" lon="5.51387">
        <ele>722.77712865101</ele>
        <time>2018-05-23T09:24:51Z</time>
      </trkpt>
      <trkpt lat="43.40465" lon="5.51384">
        <ele>723.30451666647</ele>
        <time>2018-05-23T09:25:03Z</time>
      </trkpt>
      <trkpt lat="43.40471" lon="5.51374">
        <ele>724.56819624789</ele>
        <time>2018-05-23T09:25:29Z</time>
      </trkpt>
      <trkpt lat="43.40473" lon="5.51363">
        <ele>725.84356585879</ele>
        <time>2018-05-23T09:25:59Z</time>
      </trkpt>
      <trkpt lat="43.40475" lon="5.51351">
        <ele>727.16773903986</ele>
        <time>2018-05-23T09:26:26Z</time>
      </trkpt>
      <trkpt lat="43.40484" lon="5.51347">
        <ele>728.62913114137</ele>
        <time>2018-05-23T09:26:45Z</time>
      </trkpt>
      <trkpt lat="43.40492" lon="5.51342">
        <ele>729.62729411478</ele>
        <time>2018-05-23T09:26:59Z</time>
      </trkpt>
      <trkpt lat="43.40501" lon="5.51344">
        <ele>730.39201587067</ele>
        <time>2018-05-23T09:27:33Z</time>
      </trkpt>
      <trkpt lat="43.40507" lon="5.51336">
        <ele>731.84854500391</ele>
        <time>2018-05-23T09:28:26Z</time>
      </trkpt>
      <trkpt lat="43.40509" lon="5.51324">
        <ele>732.62638299674</ele>
        <time>2018-05-23T09:28:49Z</time>
      </trkpt>
      <trkpt lat="43.40516" lon="5.51316">
        <ele>733.45621051158</ele>
        <time>2018-05-23T09:29:10Z</time>
      </trkpt>
      <trkpt lat="43.40524" lon="5.51314">
        <ele>735.62142672794</ele>
        <time>2018-05-23T09:31:04Z</time>
      </trkpt>
      <trkpt lat="43.40529" lon="5.51304">
        <ele>737.44785082913</ele>
        <time>2018-05-23T09:31:49Z</time>
      </trkpt>
      <trkpt lat="43.40535" lon="5.51295">
        <ele>738.64688881742</ele>
        <time>2018-05-23T09:32:21Z</time>
      </trkpt>
      <trkpt lat="43.4054" lon="5.51285">
        <ele>740.22055212169</ele>
        <time>2018-05-23T09:32:48Z</time>
      </trkpt>
      <trkpt lat="43.40546" lon="5.51277">
        <ele>742.75917438089</ele>
        <time>2018-05-23T09:33:54Z</time>
      </trkpt>
      <trkpt lat="43.40555" lon="5.51278">
        <ele>743.80548226443</ele>
        <time>2018-05-23T09:34:19Z</time>
      </trkpt>
      <trkpt lat="43.40563" lon="5.5128">
        <ele>744.24508857019</ele>
        <time>2018-05-23T09:34:29Z</time>
      </trkpt>
      <trkpt lat="43.40571" lon="5.51283">
        <ele>744.89444463424</ele>
        <time>2018-05-23T09:34:47Z</time>
      </trkpt>
      <trkpt lat="43.40578" lon="5.51291">
        <ele>745.34898230569</ele>
        <time>2018-05-23T09:35:01Z</time>
      </trkpt>
      <trkpt lat="43.40587" lon="5.51292">
        <ele>745.71150338907</ele>
        <time>2018-05-23T09:35:13Z</time>
      </trkpt>
      <trkpt lat="43.40595" lon="5.51289">
        <ele>745.90687429951</ele>
        <time>2018-05-23T09:35:20Z</time>
      </trkpt>
      <trkpt lat="43.40604" lon="5.51292">
        <ele>746.10890363004</ele>
        <time>2018-05-23T09:35:27Z</time>
      </trkpt>
      <trkpt lat="43.40611" lon="5.51294">
        <ele>746.30955181773</ele>
        <time>2018-05-23T09:35:33Z</time>
      </trkpt>
      <trkpt lat="43.4062" lon="5.51294">
        <ele>746.52654179121</ele>
        <time>2018-05-23T09:35:39Z</time>
      </trkpt>
      <trkpt lat="43.40628" lon="5.51293">
        <ele>746.89024574343</ele>
        <time>2018-05-23T09:35:48Z</time>
      </trkpt>
      <trkpt lat="43.40637" lon="5.51292">
        <ele>747.2348410908</ele>
        <time>2018-05-23T09:35:56Z</time>
      </trkpt>
      <trkpt lat="43.40645" lon="5.51289">
        <ele>747.7339107114</ele>
        <time>2018-05-23T09:36:07Z</time>
      </trkpt>
      <trkpt lat="43.40654" lon="5.51286">
        <ele>748.17700656643</ele>
        <time>2018-05-23T09:36:16Z</time>
      </trkpt>
      <trkpt lat="43.40659" lon="5.51276">
        <ele>750.35411689366</ele>
        <time>2018-05-23T09:38:03Z</time>
      </trkpt>
      <trkpt lat="43.40652" lon="5.51269">
        <ele>753.4868451947</ele>
        <time>2018-05-23T09:42:04Z</time>
      </trkpt>
      <trkpt lat="43.40645" lon="5.51276">
        <ele>754.72600936509</ele>
        <time>2018-05-23T09:42:24Z</time>
      </trkpt>
      <trkpt lat="43.40636" lon="5.5128">
        <ele>755.70597042564</ele>
        <time>2018-05-23T09:42:33Z</time>
      </trkpt>
      <trkpt lat="43.40628" lon="5.51284">
        <ele>756.39504032068</ele>
        <time>2018-05-23T09:42:40Z</time>
      </trkpt>
      <trkpt lat="43.4062" lon="5.51286">
        <ele>757.28998277424</ele>
        <time>2018-05-23T09:42:50Z</time>
      </trkpt>
      <trkpt lat="43.40612" lon="5.5129">
        <ele>758.01262633533</ele>
        <time>2018-05-23T09:42:59Z</time>
      </trkpt>
      <trkpt lat="43.40604" lon="5.51293">
        <ele>758.66496672249</ele>
        <time>2018-05-23T09:43:08Z</time>
      </trkpt>
      <trkpt lat="43.40595" lon="5.51296">
        <ele>759.24964165783</ele>
        <time>2018-05-23T09:43:17Z</time>
      </trkpt>
      <trkpt lat="43.40587" lon="5.51295">
        <ele>759.54731730559</ele>
        <time>2018-05-23T09:43:22Z</time>
      </trkpt>
      <trkpt lat="43.4058" lon="5.51289">
        <ele>759.92632615786</ele>
        <time>2018-05-23T09:43:29Z</time>
      </trkpt>
      <trkpt lat="43.40573" lon="5.51282">
        <ele>760.31004870988</ele>
        <time>2018-05-23T09:43:37Z</time>
      </trkpt>
      <trkpt lat="43.40565" lon="5.51278">
        <ele>760.68791161984</ele>
        <time>2018-05-23T09:43:46Z</time>
      </trkpt>
      <trkpt lat="43.40559" lon="5.5127">
        <ele>760.99034971225</ele>
        <time>2018-05-23T09:43:54Z</time>
      </trkpt>
      <trkpt lat="43.40552" lon="5.51264">
        <ele>761.23303791012</ele>
        <time>2018-05-23T09:44:01Z</time>
      </trkpt>
      <trkpt lat="43.40546" lon="5.51257">
        <ele>761.49415098568</ele>
        <time>2018-05-23T09:44:09Z</time>
      </trkpt>
      <trkpt lat="43.4054" lon="5.51249">
        <ele>761.67312330266</ele>
        <time>2018-05-23T09:44:15Z</time>
      </trkpt>
      <trkpt lat="43.40533" lon="5.51242">
        <ele>761.91617805503</ele>
        <time>2018-05-23T09:44:24Z</time>
      </trkpt>
      <trkpt lat="43.40526" lon="5.51234">
        <ele>762.18430445583</ele>
        <time>2018-05-23T09:44:35Z</time>
      </trkpt>
      <trkpt lat="43.40524" lon="5.51223">
        <ele>762.3355816259</ele>
        <time>2018-05-23T09:44:42Z</time>
      </trkpt>
      <trkpt lat="43.40527" lon="5.51213">
        <ele>762.53363091323</ele>
        <time>2018-05-23T09:44:53Z</time>
      </trkpt>
      <trkpt lat="43.40527" lon="5.512">
        <ele>762.74350323272</ele>
        <time>2018-05-23T09:45:06Z</time>
      </trkpt>
      <trkpt lat="43.40522" lon="5.51191">
        <ele>762.92462406006</ele>
        <time>2018-05-23T09:45:18Z</time>
      </trkpt>
      <trkpt lat="43.40516" lon="5.51182">
        <ele>763.0705955203</ele>
        <time>2018-05-23T09:45:28Z</time>
      </trkpt>
      <trkpt lat="43.40509" lon="5.51175">
        <ele>763.21475172948</ele>
        <time>2018-05-23T09:45:39Z</time>
      </trkpt>
      <trkpt lat="43.40506" lon="5.51164">
        <ele>763.37684234844</ele>
        <time>2018-05-23T09:45:57Z</time>
      </trkpt>
      <trkpt lat="43.40505" lon="5.51152">
        <ele>763.46034699304</ele>
        <time>2018-05-23T09:46:09Z</time>
      </trkpt>
      <trkpt lat="43.40507" lon="5.5114">
        <ele>763.50116648979</ele>
        <time>2018-05-23T09:46:17Z</time>
      </trkpt>
      <trkpt lat="43.40507" lon="5.51129">
        <ele>763.5481997674</ele>
        <time>2018-05-23T09:46:31Z</time>
      </trkpt>
      <trkpt lat="43.40505" lon="5.51118">
        <ele>763.56755872208</ele>
        <time>2018-05-23T09:46:41Z</time>
      </trkpt>
      <trkpt lat="43.40502" lon="5.51106">
        <ele>763.56029510835</ele>
        <time>2018-05-23T09:47:04Z</time>
      </trkpt>
      <trkpt lat="43.405" lon="5.51095">
        <ele>763.50611696536</ele>
        <time>2018-05-23T09:47:22Z</time>
      </trkpt>
      <trkpt lat="43.40491" lon="5.51092">
        <ele>762.66067664976</ele>
        <time>2018-05-23T09:53:19Z</time>
      </trkpt>
      <trkpt lat="43.405" lon="5.51089">
        <ele>761.68900769903</ele>
        <time>2018-05-23T09:57:08Z</time>
      </trkpt>
      <trkpt lat="43.40491" lon="5.51093">
        <ele>758.28146306816</ele>
        <time>2018-05-23T10:02:46Z</time>
      </trkpt>
      <trkpt lat="43.40491" lon="5.51091">
        <ele>755.00166993317</ele>
        <time>2018-05-23T10:26:47Z</time>
      </trkpt>
      <trkpt lat="43.405" lon="5.51086">
        <ele>754.30613937782</ele>
        <time>2018-05-23T10:45:23Z</time>
      </trkpt>
      <trkpt lat="43.40502" lon="5.51075">
        <ele>753.63192952213</ele>
        <time>2018-05-23T10:45:44Z</time>
      </trkpt>
      <trkpt lat="43.40499" lon="5.51063">
        <ele>752.28054072363</ele>
        <time>2018-05-23T10:46:00Z</time>
      </trkpt>
      <trkpt lat="43.40494" lon="5.51054">
        <ele>751.42387185342</ele>
        <time>2018-05-23T10:46:12Z</time>
      </trkpt>
      <trkpt lat="43.40497" lon="5.51043">
        <ele>751.20869848739</ele>
        <time>2018-05-23T10:46:34Z</time>
      </trkpt>
      <trkpt lat="43.40497" lon="5.51032">
        <ele>751.19057599027</ele>
        <time>2018-05-23T10:46:48Z</time>
      </trkpt>
      <trkpt lat="43.40498" lon="5.5102">
        <ele>750.99842165593</ele>
        <time>2018-05-23T10:47:03Z</time>
      </trkpt>
      <trkpt lat="43.40496" lon="5.51009">
        <ele>750.68864542038</ele>
        <time>2018-05-23T10:47:11Z</time>
      </trkpt>
      <trkpt lat="43.40495" lon="5.50996">
        <ele>750.19924083613</ele>
        <time>2018-05-23T10:47:22Z</time>
      </trkpt>
      <trkpt lat="43.40493" lon="5.50986">
        <ele>749.72048822671</ele>
        <time>2018-05-23T10:47:31Z</time>
      </trkpt>
      <trkpt lat="43.4049" lon="5.50975">
        <ele>749.26050665478</ele>
        <time>2018-05-23T10:47:41Z</time>
      </trkpt>
      <trkpt lat="43.40488" lon="5.50963">
        <ele>748.83022794154</ele>
        <time>2018-05-23T10:47:53Z</time>
      </trkpt>
      <trkpt lat="43.40489" lon="5.50952">
        <ele>748.41219279298</ele>
        <time>2018-05-23T10:48:09Z</time>
      </trkpt>
      <trkpt lat="43.40488" lon="5.5094">
        <ele>748.13063540697</ele>
        <time>2018-05-23T10:48:24Z</time>
      </trkpt>
      <trkpt lat="43.40484" lon="5.50929">
        <ele>747.77945734938</ele>
        <time>2018-05-23T10:48:46Z</time>
      </trkpt>
      <trkpt lat="43.40485" lon="5.50917">
        <ele>747.48934669533</ele>
        <time>2018-05-23T10:49:00Z</time>
      </trkpt>
      <trkpt lat="43.40481" lon="5.50906">
        <ele>747.16594059573</ele>
        <time>2018-05-23T10:49:28Z</time>
      </trkpt>
      <trkpt lat="43.4048" lon="5.50894">
        <ele>746.83704509139</ele>
        <time>2018-05-23T10:50:04Z</time>
      </trkpt>
      <trkpt lat="43.40479" lon="5.50883">
        <ele>746.70909963734</ele>
        <time>2018-05-23T10:50:10Z</time>
      </trkpt>
      <trkpt lat="43.40478" lon="5.50872">
        <ele>746.55865669716</ele>
        <time>2018-05-23T10:50:17Z</time>
      </trkpt>
      <trkpt lat="43.40479" lon="5.5086">
        <ele>746.32236204623</ele>
        <time>2018-05-23T10:50:28Z</time>
      </trkpt>
      <trkpt lat="43.40481" lon="5.50848">
        <ele>745.84234570992</ele>
        <time>2018-05-23T10:50:51Z</time>
      </trkpt>
      <trkpt lat="43.40474" lon="5.50841">
        <ele>745.47480733411</ele>
        <time>2018-05-23T10:51:06Z</time>
      </trkpt>
      <trkpt lat="43.40475" lon="5.5083">
        <ele>745.08080398488</ele>
        <time>2018-05-23T10:51:19Z</time>
      </trkpt>
      <trkpt lat="43.40481" lon="5.50822">
        <ele>744.75439859903</ele>
        <time>2018-05-23T10:51:28Z</time>
      </trkpt>
      <trkpt lat="43.40484" lon="5.5081">
        <ele>744.3622564384</ele>
        <time>2018-05-23T10:51:38Z</time>
      </trkpt>
      <trkpt lat="43.40482" lon="5.50799">
        <ele>743.84243397749</ele>
        <time>2018-05-23T10:51:52Z</time>
      </trkpt>
      <trkpt lat="43.4048" lon="5.50787">
        <ele>743.12739822252</ele>
        <time>2018-05-23T10:52:12Z</time>
      </trkpt>
      <trkpt lat="43.40478" lon="5.50776">
        <ele>742.63114444907</ele>
        <time>2018-05-23T10:52:25Z</time>
      </trkpt>
      <trkpt lat="43.40477" lon="5.50765">
        <ele>742.27005368565</ele>
        <time>2018-05-23T10:52:34Z</time>
      </trkpt>
      <trkpt lat="43.40478" lon="5.50753">
        <ele>741.95244797677</ele>
        <time>2018-05-23T10:52:42Z</time>
      </trkpt>
      <trkpt lat="43.40481" lon="5.50742">
        <ele>741.55611775613</ele>
        <time>2018-05-23T10:52:52Z</time>
      </trkpt>
      <trkpt lat="43.40484" lon="5.50732">
        <ele>741.11335014388</ele>
        <time>2018-05-23T10:53:03Z</time>
      </trkpt>
      <trkpt lat="43.40488" lon="5.50721">
        <ele>740.65506790303</ele>
        <time>2018-05-23T10:53:14Z</time>
      </trkpt>
      <trkpt lat="43.40494" lon="5.50713">
        <ele>740.24077436267</ele>
        <time>2018-05-23T10:53:24Z</time>
      </trkpt>
      <trkpt lat="43.40492" lon="5.50701">
        <ele>739.34961702979</ele>
        <time>2018-05-23T10:54:25Z</time>
      </trkpt>
      <trkpt lat="43.4049" lon="5.50689">
        <ele>732.54555633784</ele>
        <time>2018-05-23T10:59:47Z</time>
      </trkpt>
      <trkpt lat="43.40487" lon="5.50679">
        <ele>731.18319977384</ele>
        <time>2018-05-23T11:00:09Z</time>
      </trkpt>
      <trkpt lat="43.40488" lon="5.50666">
        <ele>730.19927725845</ele>
        <time>2018-05-23T11:00:21Z</time>
      </trkpt>
      <trkpt lat="43.40485" lon="5.50655">
        <ele>729.36996723051</ele>
        <time>2018-05-23T11:00:33Z</time>
      </trkpt>
      <trkpt lat="43.40481" lon="5.50644">
        <ele>728.66398827214</ele>
        <time>2018-05-23T11:00:46Z</time>
      </trkpt>
      <trkpt lat="43.40478" lon="5.50633">
        <ele>728.15784329163</ele>
        <time>2018-05-23T11:00:56Z</time>
      </trkpt>
      <trkpt lat="43.40479" lon="5.50622">
        <ele>727.71382620714</ele>
        <time>2018-05-23T11:01:06Z</time>
      </trkpt>
      <trkpt lat="43.40476" lon="5.50611">
        <ele>727.17577337117</ele>
        <time>2018-05-23T11:01:21Z</time>
      </trkpt>
      <trkpt lat="43.40474" lon="5.506">
        <ele>726.83022246236</ele>
        <time>2018-05-23T11:01:33Z</time>
      </trkpt>
      <trkpt lat="43.40475" lon="5.50588">
        <ele>726.51315797011</ele>
        <time>2018-05-23T11:01:48Z</time>
      </trkpt>
      <trkpt lat="43.40473" lon="5.50576">
        <ele>726.11930519682</ele>
        <time>2018-05-23T11:02:05Z</time>
      </trkpt>
      <trkpt lat="43.4047" lon="5.50564">
        <ele>725.79795668952</ele>
        <time>2018-05-23T11:02:23Z</time>
      </trkpt>
      <trkpt lat="43.40467" lon="5.50552">
        <ele>725.55204281278</ele>
        <time>2018-05-23T11:02:48Z</time>
      </trkpt>
      <trkpt lat="43.40469" lon="5.5054">
        <ele>725.41647232772</ele>
        <time>2018-05-23T11:03:13Z</time>
      </trkpt>
      <trkpt lat="43.40463" lon="5.50532">
        <ele>725.32034605896</ele>
        <time>2018-05-23T11:03:28Z</time>
      </trkpt>
      <trkpt lat="43.40459" lon="5.50522">
        <ele>725.25284766503</ele>
        <time>2018-05-23T11:03:38Z</time>
      </trkpt>
      <trkpt lat="43.40458" lon="5.5051">
        <ele>725.17581056843</ele>
        <time>2018-05-23T11:03:50Z</time>
      </trkpt>
      <trkpt lat="43.40462" lon="5.50499">
        <ele>725.08951620432</ele>
        <time>2018-05-23T11:04:03Z</time>
      </trkpt>
      <trkpt lat="43.40461" lon="5.50487">
        <ele>724.99565812243</ele>
        <time>2018-05-23T11:04:17Z</time>
      </trkpt>
      <trkpt lat="43.40464" lon="5.50475">
        <ele>724.93284468246</ele>
        <time>2018-05-23T11:04:26Z</time>
      </trkpt>
      <trkpt lat="43.40467" lon="5.50464">
        <ele>724.79437308841</ele>
        <time>2018-05-23T11:04:43Z</time>
      </trkpt>
      <trkpt lat="43.40468" lon="5.50452">
        <ele>724.64897276276</ele>
        <time>2018-05-23T11:05:01Z</time>
      </trkpt>
      <trkpt lat="43.40467" lon="5.5044">
        <ele>724.54590143664</ele>
        <time>2018-05-23T11:05:13Z</time>
      </trkpt>
      <trkpt lat="43.40465" lon="5.50428">
        <ele>724.44685119258</ele>
        <time>2018-05-23T11:05:27Z</time>
      </trkpt>
      <trkpt lat="43.40465" lon="5.50416">
        <ele>724.36004914789</ele>
        <time>2018-05-23T11:05:45Z</time>
      </trkpt>
      <trkpt lat="43.40461" lon="5.50407">
        <ele>724.33392948911</ele>
        <time>2018-05-23T11:05:56Z</time>
      </trkpt>
      <trkpt lat="43.40458" lon="5.50395">
        <ele>724.35248608811</ele>
        <time>2018-05-23T11:06:23Z</time>
      </trkpt>
      <trkpt lat="43.40453" lon="5.50385">
        <ele>724.38794651319</ele>
        <time>2018-05-23T11:07:16Z</time>
      </trkpt>
      <trkpt lat="43.40452" lon="5.50374">
        <ele>724.31617237528</ele>
        <time>2018-05-23T11:08:01Z</time>
      </trkpt>
      <trkpt lat="43.40452" lon="5.50362">
        <ele>724.2411341713</ele>
        <time>2018-05-23T11:08:17Z</time>
      </trkpt>
      <trkpt lat="43.4045" lon="5.5035">
        <ele>724.15401426894</ele>
        <time>2018-05-23T11:08:27Z</time>
      </trkpt>
      <trkpt lat="43.40455" lon="5.5034">
        <ele>723.95722780011</ele>
        <time>2018-05-23T11:08:45Z</time>
      </trkpt>
      <trkpt lat="43.40457" lon="5.50329">
        <ele>723.77592461948</ele>
        <time>2018-05-23T11:08:56Z</time>
      </trkpt>
      <trkpt lat="43.40454" lon="5.50318">
        <ele>723.50825285973</ele>
        <time>2018-05-23T11:09:12Z</time>
      </trkpt>
      <trkpt lat="43.40452" lon="5.50306">
        <ele>723.26526691983</ele>
        <time>2018-05-23T11:09:29Z</time>
      </trkpt>
      <trkpt lat="43.40453" lon="5.50294">
        <ele>723.12430065844</ele>
        <time>2018-05-23T11:09:42Z</time>
      </trkpt>
      <trkpt lat="43.40456" lon="5.50283">
        <ele>722.97822374315</ele>
        <time>2018-05-23T11:09:59Z</time>
      </trkpt>
      <trkpt lat="43.4046" lon="5.50272">
        <ele>722.89339004431</ele>
        <time>2018-05-23T11:10:09Z</time>
      </trkpt>
      <trkpt lat="43.40463" lon="5.50261">
        <ele>722.81151862589</ele>
        <time>2018-05-23T11:10:18Z</time>
      </trkpt>
      <trkpt lat="43.40464" lon="5.5025">
        <ele>722.72124397053</ele>
        <time>2018-05-23T11:10:29Z</time>
      </trkpt>
      <trkpt lat="43.40466" lon="5.50238">
        <ele>722.63882573984</ele>
        <time>2018-05-23T11:10:40Z</time>
      </trkpt>
      <trkpt lat="43.40468" lon="5.50227">
        <ele>722.56683563332</ele>
        <time>2018-05-23T11:10:50Z</time>
      </trkpt>
      <trkpt lat="43.40469" lon="5.50215">
        <ele>722.5008263656</ele>
        <time>2018-05-23T11:11:02Z</time>
      </trkpt>
      <trkpt lat="43.40469" lon="5.50203">
        <ele>722.42100823602</ele>
        <time>2018-05-23T11:11:17Z</time>
      </trkpt>
      <trkpt lat="43.40469" lon="5.50191">
        <ele>722.32666915847</ele>
        <time>2018-05-23T11:11:38Z</time>
      </trkpt>
      <trkpt lat="43.40471" lon="5.5018">
        <ele>722.25255927463</ele>
        <time>2018-05-23T11:11:51Z</time>
      </trkpt>
      <trkpt lat="43.40477" lon="5.50171">
        <ele>722.19739853712</ele>
        <time>2018-05-23T11:12:03Z</time>
      </trkpt>
      <trkpt lat="43.4048" lon="5.50159">
        <ele>722.11495604147</ele>
        <time>2018-05-23T11:12:17Z</time>
      </trkpt>
      <trkpt lat="43.40484" lon="5.50149">
        <ele>721.99234903655</ele>
        <time>2018-05-23T11:12:31Z</time>
      </trkpt>
      <trkpt lat="43.40488" lon="5.50138">
        <ele>721.8051355194</ele>
        <time>2018-05-23T11:12:48Z</time>
      </trkpt>
      <trkpt lat="43.40492" lon="5.50127">
        <ele>721.61890990346</ele>
        <time>2018-05-23T11:13:02Z</time>
      </trkpt>
      <trkpt lat="43.40493" lon="5.50117">
        <ele>721.3230183871</ele>
        <time>2018-05-23T11:13:44Z</time>
      </trkpt>
      <trkpt lat="43.405" lon="5.5011">
        <ele>721.22350109321</ele>
        <time>2018-05-23T11:13:48Z</time>
      </trkpt>
      <trkpt lat="43.405" lon="5.50098">
        <ele>720.99164524799</ele>
        <time>2018-05-23T11:13:59Z</time>
      </trkpt>
      <trkpt lat="43.40497" lon="5.50087">
        <ele>720.76367899457</ele>
        <time>2018-05-23T11:14:09Z</time>
      </trkpt>
      <trkpt lat="43.40498" lon="5.50076">
        <ele>720.52728850405</ele>
        <time>2018-05-23T11:14:19Z</time>
      </trkpt>
      <trkpt lat="43.40498" lon="5.50064">
        <ele>720.32916407206</ele>
        <time>2018-05-23T11:14:28Z</time>
      </trkpt>
      <trkpt lat="43.40499" lon="5.50053">
        <ele>720.15968573497</ele>
        <time>2018-05-23T11:14:36Z</time>
      </trkpt>
      <trkpt lat="43.40502" lon="5.50042">
        <ele>719.97023693312</ele>
        <time>2018-05-23T11:14:46Z</time>
      </trkpt>
      <trkpt lat="43.40504" lon="5.5003">
        <ele>719.6573840047</ele>
        <time>2018-05-23T11:15:02Z</time>
      </trkpt>
      <trkpt lat="43.40506" lon="5.50019">
        <ele>719.46317594407</ele>
        <time>2018-05-23T11:15:13Z</time>
      </trkpt>
      <trkpt lat="43.40506" lon="5.50007">
        <ele>719.19438219296</ele>
        <time>2018-05-23T11:15:31Z</time>
      </trkpt>
      <trkpt lat="43.40504" lon="5.49995">
        <ele>719.03397495258</ele>
        <time>2018-05-23T11:15:42Z</time>
      </trkpt>
      <trkpt lat="43.40505" lon="5.49984">
        <ele>718.88722832923</ele>
        <time>2018-05-23T11:15:55Z</time>
      </trkpt>
      <trkpt lat="43.40508" lon="5.49972">
        <ele>718.74899123693</ele>
        <time>2018-05-23T11:16:13Z</time>
      </trkpt>
      <trkpt lat="43.40509" lon="5.4996">
        <ele>718.67386094059</ele>
        <time>2018-05-23T11:16:27Z</time>
      </trkpt>
      <trkpt lat="43.40509" lon="5.49949">
        <ele>718.63064316671</ele>
        <time>2018-05-23T11:16:39Z</time>
      </trkpt>
      <trkpt lat="43.40507" lon="5.49937">
        <ele>718.61097718644</ele>
        <time>2018-05-23T11:16:50Z</time>
      </trkpt>
      <trkpt lat="43.4051" lon="5.49926">
        <ele>718.60359266296</ele>
        <time>2018-05-23T11:17:01Z</time>
      </trkpt>
      <trkpt lat="43.40512" lon="5.49915">
        <ele>718.60350704118</ele>
        <time>2018-05-23T11:17:09Z</time>
      </trkpt>
      <trkpt lat="43.40513" lon="5.49904">
        <ele>718.60277312703</ele>
        <time>2018-05-23T11:17:20Z</time>
      </trkpt>
      <trkpt lat="43.40516" lon="5.49893">
        <ele>718.65054033053</ele>
        <time>2018-05-23T11:17:35Z</time>
      </trkpt>
      <trkpt lat="43.40522" lon="5.49884">
        <ele>718.77638243362</ele>
        <time>2018-05-23T11:17:50Z</time>
      </trkpt>
      <trkpt lat="43.40524" lon="5.49872">
        <ele>719.06589543297</ele>
        <time>2018-05-23T11:18:22Z</time>
      </trkpt>
      <trkpt lat="43.40531" lon="5.49865">
        <ele>719.30684711234</ele>
        <time>2018-05-23T11:18:42Z</time>
      </trkpt>
      <trkpt lat="43.40536" lon="5.49856">
        <ele>719.53247121507</ele>
        <time>2018-05-23T11:19:03Z</time>
      </trkpt>
      <trkpt lat="43.40541" lon="5.49846">
        <ele>719.67155196717</ele>
        <time>2018-05-23T11:19:17Z</time>
      </trkpt>
      <trkpt lat="43.40544" lon="5.49835">
        <ele>719.81005889137</ele>
        <time>2018-05-23T11:20:09Z</time>
      </trkpt>
      <trkpt lat="43.4055" lon="5.49827">
        <ele>720.00769241699</ele>
        <time>2018-05-23T11:20:46Z</time>
      </trkpt>
      <trkpt lat="43.40558" lon="5.49822">
        <ele>720.11542695227</ele>
        <time>2018-05-23T11:20:58Z</time>
      </trkpt>
      <trkpt lat="43.40563" lon="5.49812">
        <ele>720.26793434211</ele>
        <time>2018-05-23T11:21:20Z</time>
      </trkpt>
      <trkpt lat="43.40568" lon="5.49802">
        <ele>720.3408361824</ele>
        <time>2018-05-23T11:21:36Z</time>
      </trkpt>
      <trkpt lat="43.40575" lon="5.49794">
        <ele>720.36493184557</ele>
        <time>2018-05-23T11:21:47Z</time>
      </trkpt>
      <trkpt lat="43.40582" lon="5.49788">
        <ele>720.31946237203</ele>
        <time>2018-05-23T11:22:34Z</time>
      </trkpt>
      <trkpt lat="43.40587" lon="5.49778">
        <ele>720.23062096957</ele>
        <time>2018-05-23T11:22:51Z</time>
      </trkpt>
      <trkpt lat="43.40591" lon="5.49767">
        <ele>720.13790650512</ele>
        <time>2018-05-23T11:23:06Z</time>
      </trkpt>
      <trkpt lat="43.40597" lon="5.49759">
        <ele>720.04277185635</ele>
        <time>2018-05-23T11:23:28Z</time>
      </trkpt>
      <trkpt lat="43.40602" lon="5.49751">
        <ele>719.98854470943</ele>
        <time>2018-05-23T11:23:41Z</time>
      </trkpt>
      <trkpt lat="43.40611" lon="5.49753">
        <ele>719.91113470239</ele>
        <time>2018-05-23T11:24:00Z</time>
      </trkpt>
      <trkpt lat="43.40614" lon="5.49741">
        <ele>722.36727348653</ele>
        <time>2018-05-23T11:32:56Z</time>
      </trkpt>
      <trkpt lat="43.40614" lon="5.49729">
        <ele>722.62085373301</ele>
        <time>2018-05-23T11:33:16Z</time>
      </trkpt>
      <trkpt lat="43.40619" lon="5.49719">
        <ele>722.71727583193</ele>
        <time>2018-05-23T11:33:31Z</time>
      </trkpt>
      <trkpt lat="43.40622" lon="5.49707">
        <ele>722.7403886962</ele>
        <time>2018-05-23T11:33:43Z</time>
      </trkpt>
      <trkpt lat="43.40627" lon="5.49698">
        <ele>722.73641879923</ele>
        <time>2018-05-23T11:33:53Z</time>
      </trkpt>
      <trkpt lat="43.40631" lon="5.49688">
        <ele>722.72255109286</ele>
        <time>2018-05-23T11:34:02Z</time>
      </trkpt>
      <trkpt lat="43.40633" lon="5.49676">
        <ele>722.70439139863</ele>
        <time>2018-05-23T11:34:10Z</time>
      </trkpt>
      <trkpt lat="43.40636" lon="5.49666">
        <ele>722.68364334734</ele>
        <time>2018-05-23T11:34:17Z</time>
      </trkpt>
      <trkpt lat="43.40641" lon="5.49657">
        <ele>722.65445737376</ele>
        <time>2018-05-23T11:34:26Z</time>
      </trkpt>
      <trkpt lat="43.40644" lon="5.49646">
        <ele>722.61193225476</ele>
        <time>2018-05-23T11:34:37Z</time>
      </trkpt>
      <trkpt lat="43.40646" lon="5.49635">
        <ele>722.56670388277</ele>
        <time>2018-05-23T11:34:49Z</time>
      </trkpt>
      <trkpt lat="43.40649" lon="5.49624">
        <ele>722.5299112706</ele>
        <time>2018-05-23T11:34:58Z</time>
      </trkpt>
      <trkpt lat="43.40651" lon="5.49613">
        <ele>722.47484544483</ele>
        <time>2018-05-23T11:35:09Z</time>
      </trkpt>
      <trkpt lat="43.40652" lon="5.49602">
        <ele>722.41480440766</ele>
        <time>2018-05-23T11:35:19Z</time>
      </trkpt>
      <trkpt lat="43.40655" lon="5.4959">
        <ele>722.32555004507</ele>
        <time>2018-05-23T11:35:31Z</time>
      </trkpt>
      <trkpt lat="43.40661" lon="5.49581">
        <ele>722.23581817788</ele>
        <time>2018-05-23T11:35:41Z</time>
      </trkpt>
      <trkpt lat="43.40665" lon="5.49572">
        <ele>722.1183173671</ele>
        <time>2018-05-23T11:35:52Z</time>
      </trkpt>
      <trkpt lat="43.40672" lon="5.49564">
        <ele>722.01332322105</ele>
        <time>2018-05-23T11:36:01Z</time>
      </trkpt>
      <trkpt lat="43.40674" lon="5.49553">
        <ele>721.87950450118</ele>
        <time>2018-05-23T11:36:12Z</time>
      </trkpt>
      <trkpt lat="43.40681" lon="5.49546">
        <ele>721.69819464444</ele>
        <time>2018-05-23T11:36:26Z</time>
      </trkpt>
      <trkpt lat="43.40685" lon="5.49536">
        <ele>721.55576898558</ele>
        <time>2018-05-23T11:36:36Z</time>
      </trkpt>
      <trkpt lat="43.4069" lon="5.49526">
        <ele>721.33964852399</ele>
        <time>2018-05-23T11:36:52Z</time>
      </trkpt>
      <trkpt lat="43.40695" lon="5.49517">
        <ele>721.23393342409</ele>
        <time>2018-05-23T11:37:01Z</time>
      </trkpt>
      <trkpt lat="43.40702" lon="5.4951">
        <ele>721.13256091838</ele>
        <time>2018-05-23T11:37:11Z</time>
      </trkpt>
      <trkpt lat="43.40708" lon="5.49501">
        <ele>721.03027193083</ele>
        <time>2018-05-23T11:37:23Z</time>
      </trkpt>
      <trkpt lat="43.40712" lon="5.49491">
        <ele>720.97002883624</ele>
        <time>2018-05-23T11:37:32Z</time>
      </trkpt>
      <trkpt lat="43.40719" lon="5.49483">
        <ele>720.91278449117</ele>
        <time>2018-05-23T11:37:44Z</time>
      </trkpt>
      <trkpt lat="43.40723" lon="5.49473">
        <ele>720.8895287455</ele>
        <time>2018-05-23T11:37:54Z</time>
      </trkpt>
      <trkpt lat="43.40726" lon="5.49461">
        <ele>720.8773503743</ele>
        <time>2018-05-23T11:38:09Z</time>
      </trkpt>
      <trkpt lat="43.4073" lon="5.49451">
        <ele>720.86599772387</ele>
        <time>2018-05-23T11:38:23Z</time>
      </trkpt>
      <trkpt lat="43.40736" lon="5.49443">
        <ele>720.85853176117</ele>
        <time>2018-05-23T11:38:35Z</time>
      </trkpt>
      <trkpt lat="43.40744" lon="5.49438">
        <ele>720.86035653874</ele>
        <time>2018-05-23T11:38:50Z</time>
      </trkpt>
      <trkpt lat="43.40751" lon="5.49431">
        <ele>720.87394318278</ele>
        <time>2018-05-23T11:39:00Z</time>
      </trkpt>
      <trkpt lat="43.40755" lon="5.49421">
        <ele>720.90122152333</ele>
        <time>2018-05-23T11:39:09Z</time>
      </trkpt>
      <trkpt lat="43.40756" lon="5.49409">
        <ele>720.95682319453</ele>
        <time>2018-05-23T11:39:20Z</time>
      </trkpt>
      <trkpt lat="43.4076" lon="5.49399">
        <ele>721.02259627245</ele>
        <time>2018-05-23T11:39:29Z</time>
      </trkpt>
      <trkpt lat="43.40764" lon="5.49389">
        <ele>721.14175746117</ele>
        <time>2018-05-23T11:39:41Z</time>
      </trkpt>
      <trkpt lat="43.40765" lon="5.49378">
        <ele>721.22962148173</ele>
        <time>2018-05-23T11:39:49Z</time>
      </trkpt>
      <trkpt lat="43.40768" lon="5.49366">
        <ele>721.36383419457</ele>
        <time>2018-05-23T11:40:01Z</time>
      </trkpt>
      <trkpt lat="43.40769" lon="5.49355">
        <ele>721.48035021531</ele>
        <time>2018-05-23T11:40:11Z</time>
      </trkpt>
      <trkpt lat="43.4077" lon="5.49344">
        <ele>721.59553901188</ele>
        <time>2018-05-23T11:40:24Z</time>
      </trkpt>
      <trkpt lat="43.40773" lon="5.49334">
        <ele>721.66993533675</ele>
        <time>2018-05-23T11:40:31Z</time>
      </trkpt>
      <trkpt lat="43.40777" lon="5.49323">
        <ele>721.77087763513</ele>
        <time>2018-05-23T11:40:41Z</time>
      </trkpt>
      <trkpt lat="43.40776" lon="5.49311">
        <ele>721.8515657999</ele>
        <time>2018-05-23T11:40:49Z</time>
      </trkpt>
      <trkpt lat="43.40774" lon="5.493">
        <ele>721.92712282375</ele>
        <time>2018-05-23T11:40:57Z</time>
      </trkpt>
      <trkpt lat="43.40773" lon="5.49288">
        <ele>721.99778173406</ele>
        <time>2018-05-23T11:41:07Z</time>
      </trkpt>
      <trkpt lat="43.40772" lon="5.49276">
        <ele>722.03526716793</ele>
        <time>2018-05-23T11:41:19Z</time>
      </trkpt>
      <trkpt lat="43.40767" lon="5.49266">
        <ele>722.02982503061</ele>
        <time>2018-05-23T11:41:28Z</time>
      </trkpt>
      <trkpt lat="43.4077" lon="5.49255">
        <ele>722.01180806437</ele>
        <time>2018-05-23T11:41:34Z</time>
      </trkpt>
      <trkpt lat="43.4077" lon="5.49244">
        <ele>721.96998311284</ele>
        <time>2018-05-23T11:41:43Z</time>
      </trkpt>
      <trkpt lat="43.40773" lon="5.49233">
        <ele>721.90634272423</ele>
        <time>2018-05-23T11:41:52Z</time>
      </trkpt>
      <trkpt lat="43.40773" lon="5.49221">
        <ele>721.82562115394</ele>
        <time>2018-05-23T11:42:00Z</time>
      </trkpt>
      <trkpt lat="43.40772" lon="5.4921">
        <ele>721.7082037369</ele>
        <time>2018-05-23T11:42:10Z</time>
      </trkpt>
      <trkpt lat="43.40773" lon="5.49199">
        <ele>721.57585342811</ele>
        <time>2018-05-23T11:42:20Z</time>
      </trkpt>
      <trkpt lat="43.40778" lon="5.49188">
        <ele>721.28779711996</ele>
        <time>2018-05-23T11:43:08Z</time>
      </trkpt>
      <trkpt lat="43.4077" lon="5.49182">
        <ele>719.90491355167</ele>
        <time>2018-05-23T11:45:29Z</time>
      </trkpt>
      <trkpt lat="43.40773" lon="5.4917">
        <ele>719.24538429987</ele>
        <time>2018-05-23T11:45:47Z</time>
      </trkpt>
      <trkpt lat="43.40769" lon="5.4916">
        <ele>718.29302788092</ele>
        <time>2018-05-23T11:46:14Z</time>
      </trkpt>
      <trkpt lat="43.4077" lon="5.49148">
        <ele>717.70965059454</ele>
        <time>2018-05-23T11:46:31Z</time>
      </trkpt>
      <trkpt lat="43.4077" lon="5.49137">
        <ele>717.25065710814</ele>
        <time>2018-05-23T11:46:46Z</time>
      </trkpt>
      <trkpt lat="43.40773" lon="5.49125">
        <ele>716.76892781251</ele>
        <time>2018-05-23T11:47:02Z</time>
      </trkpt>
      <trkpt lat="43.40774" lon="5.49114">
        <ele>716.16019394401</ele>
        <time>2018-05-23T11:47:21Z</time>
      </trkpt>
      <trkpt lat="43.40774" lon="5.49102">
        <ele>715.82143300067</ele>
        <time>2018-05-23T11:47:32Z</time>
      </trkpt>
      <trkpt lat="43.40776" lon="5.49091">
        <ele>715.51038351951</ele>
        <time>2018-05-23T11:47:43Z</time>
      </trkpt>
      <trkpt lat="43.4078" lon="5.49081">
        <ele>715.18593346623</ele>
        <time>2018-05-23T11:47:54Z</time>
      </trkpt>
      <trkpt lat="43.40783" lon="5.4907">
        <ele>714.87601167977</ele>
        <time>2018-05-23T11:48:04Z</time>
      </trkpt>
      <trkpt lat="43.40783" lon="5.49058">
        <ele>714.52447286883</ele>
        <time>2018-05-23T11:48:15Z</time>
      </trkpt>
      <trkpt lat="43.40788" lon="5.49048">
        <ele>714.09511380181</ele>
        <time>2018-05-23T11:48:28Z</time>
      </trkpt>
      <trkpt lat="43.40792" lon="5.49037">
        <ele>713.49530575367</ele>
        <time>2018-05-23T11:48:48Z</time>
      </trkpt>
      <trkpt lat="43.40796" lon="5.49026">
        <ele>712.92747415936</ele>
        <time>2018-05-23T11:49:06Z</time>
      </trkpt>
      <trkpt lat="43.40799" lon="5.49014">
        <ele>712.54567602213</ele>
        <time>2018-05-23T11:49:20Z</time>
      </trkpt>
      <trkpt lat="43.40803" lon="5.49004">
        <ele>712.28129823855</ele>
        <time>2018-05-23T11:49:29Z</time>
      </trkpt>
      <trkpt lat="43.40807" lon="5.48995">
        <ele>711.87103659744</ele>
        <time>2018-05-23T11:49:45Z</time>
      </trkpt>
      <trkpt lat="43.4081" lon="5.48984">
        <ele>711.48715672306</ele>
        <time>2018-05-23T11:49:59Z</time>
      </trkpt>
      <trkpt lat="43.40814" lon="5.48973">
        <ele>710.95055375579</ele>
        <time>2018-05-23T11:50:26Z</time>
      </trkpt>
      <trkpt lat="43.40813" lon="5.48961">
        <ele>710.2189089581</ele>
        <time>2018-05-23T11:50:52Z</time>
      </trkpt>
      <trkpt lat="43.40814" lon="5.4895">
        <ele>709.66213457243</ele>
        <time>2018-05-23T11:51:09Z</time>
      </trkpt>
      <trkpt lat="43.4081" lon="5.48939">
        <ele>708.81033855407</ele>
        <time>2018-05-23T11:51:34Z</time>
      </trkpt>
      <trkpt lat="43.40805" lon="5.48929">
        <ele>708.14350573045</ele>
        <time>2018-05-23T11:51:51Z</time>
      </trkpt>
      <trkpt lat="43.40806" lon="5.48917">
        <ele>707.08796296705</ele>
        <time>2018-05-23T11:52:20Z</time>
      </trkpt>
      <trkpt lat="43.40808" lon="5.48906">
        <ele>705.97349036135</ele>
        <time>2018-05-23T11:52:41Z</time>
      </trkpt>
      <trkpt lat="43.4081" lon="5.48895">
        <ele>704.82521417566</ele>
        <time>2018-05-23T11:53:00Z</time>
      </trkpt>
      <trkpt lat="43.40813" lon="5.48884">
        <ele>703.62342827593</ele>
        <time>2018-05-23T11:53:19Z</time>
      </trkpt>
      <trkpt lat="43.40811" lon="5.48872">
        <ele>702.58828352516</ele>
        <time>2018-05-23T11:53:41Z</time>
      </trkpt>
      <trkpt lat="43.40811" lon="5.48861">
        <ele>701.81335165873</ele>
        <time>2018-05-23T11:53:58Z</time>
      </trkpt>
      <trkpt lat="43.40809" lon="5.48849">
        <ele>701.07021614513</ele>
        <time>2018-05-23T11:54:16Z</time>
      </trkpt>
      <trkpt lat="43.40811" lon="5.48837">
        <ele>700.24876577392</ele>
        <time>2018-05-23T11:54:38Z</time>
      </trkpt>
      <trkpt lat="43.40814" lon="5.48826">
        <ele>699.09220152253</ele>
        <time>2018-05-23T11:55:06Z</time>
      </trkpt>
      <trkpt lat="43.40817" lon="5.48814">
        <ele>697.80341942794</ele>
        <time>2018-05-23T11:55:56Z</time>
      </trkpt>
      <trkpt lat="43.40813" lon="5.48804">
        <ele>696.18618342313</ele>
        <time>2018-05-23T11:56:21Z</time>
      </trkpt>
      <trkpt lat="43.40806" lon="5.48795">
        <ele>693.60664571937</ele>
        <time>2018-05-23T11:57:10Z</time>
      </trkpt>
      <trkpt lat="43.40807" lon="5.48783">
        <ele>689.86745667859</ele>
        <time>2018-05-23T11:58:11Z</time>
      </trkpt>
      <trkpt lat="43.408" lon="5.48776">
        <ele>684.61751229727</ele>
        <time>2018-05-23T11:59:40Z</time>
      </trkpt>
      <trkpt lat="43.408" lon="5.48764">
        <ele>678.9072896442</ele>
        <time>2018-05-23T12:00:24Z</time>
      </trkpt>
      <trkpt lat="43.40806" lon="5.48756">
        <ele>673.94319742855</ele>
        <time>2018-05-23T12:01:15Z</time>
      </trkpt>
      <trkpt lat="43.40809" lon="5.48745">
        <ele>670.51995510237</ele>
        <time>2018-05-23T12:02:11Z</time>
      </trkpt>
      <trkpt lat="43.40816" lon="5.48738">
        <ele>668.65325841464</ele>
        <time>2018-05-23T12:02:36Z</time>
      </trkpt>
      <trkpt lat="43.40823" lon="5.48731">
        <ele>667.24791017199</ele>
        <time>2018-05-23T12:02:53Z</time>
      </trkpt>
      <trkpt lat="43.40825" lon="5.48719">
        <ele>665.22269608203</ele>
        <time>2018-05-23T12:03:40Z</time>
      </trkpt>
      <trkpt lat="43.40826" lon="5.48707">
        <ele>663.89363039666</ele>
        <time>2018-05-23T12:03:59Z</time>
      </trkpt>
      <trkpt lat="43.40823" lon="5.48696">
        <ele>662.78014643801</ele>
        <time>2018-05-23T12:04:14Z</time>
      </trkpt>
      <trkpt lat="43.40825" lon="5.48684">
        <ele>661.93999231623</ele>
        <time>2018-05-23T12:04:25Z</time>
      </trkpt>
      <trkpt lat="43.40826" lon="5.48672">
        <ele>661.21010853914</ele>
        <time>2018-05-23T12:04:36Z</time>
      </trkpt>
      <trkpt lat="43.40827" lon="5.4866">
        <ele>660.4882608767</ele>
        <time>2018-05-23T12:04:47Z</time>
      </trkpt>
      <trkpt lat="43.40825" lon="5.48648">
        <ele>658.9989466723</ele>
        <time>2018-05-23T12:05:24Z</time>
      </trkpt>
      <trkpt lat="43.40823" lon="5.48637">
        <ele>657.4495072937</ele>
        <time>2018-05-23T12:05:38Z</time>
      </trkpt>
      <trkpt lat="43.40821" lon="5.48626">
        <ele>656.28054290102</ele>
        <time>2018-05-23T12:05:49Z</time>
      </trkpt>
      <trkpt lat="43.4082" lon="5.48614">
        <ele>654.81264334038</ele>
        <time>2018-05-23T12:06:01Z</time>
      </trkpt>
      <trkpt lat="43.40819" lon="5.48602">
        <ele>652.55533349674</ele>
        <time>2018-05-23T12:06:14Z</time>
      </trkpt>
      <trkpt lat="43.40818" lon="5.4859">
        <ele>651.11584468923</ele>
        <time>2018-05-23T12:06:22Z</time>
      </trkpt>
      <trkpt lat="43.40818" lon="5.48579">
        <ele>649.5639798944</ele>
        <time>2018-05-23T12:06:30Z</time>
      </trkpt>
      <trkpt lat="43.40816" lon="5.48568">
        <ele>647.93501257198</ele>
        <time>2018-05-23T12:06:39Z</time>
      </trkpt>
      <trkpt lat="43.40813" lon="5.48557">
        <ele>645.47258577584</ele>
        <time>2018-05-23T12:06:51Z</time>
      </trkpt>
      <trkpt lat="43.40812" lon="5.48545">
        <ele>641.45319153705</ele>
        <time>2018-05-23T12:07:07Z</time>
      </trkpt>
      <trkpt lat="43.40812" lon="5.48534">
        <ele>638.47672435992</ele>
        <time>2018-05-23T12:07:18Z</time>
      </trkpt>
      <trkpt lat="43.40815" lon="5.48522">
        <ele>635.30159699984</ele>
        <time>2018-05-23T12:07:30Z</time>
      </trkpt>
      <trkpt lat="43.40816" lon="5.48511">
        <ele>631.90670372481</ele>
        <time>2018-05-23T12:07:43Z</time>
      </trkpt>
      <trkpt lat="43.40817" lon="5.48499">
        <ele>628.83205020083</ele>
        <time>2018-05-23T12:07:55Z</time>
      </trkpt>
      <trkpt lat="43.40821" lon="5.48488">
        <ele>625.72426610745</ele>
        <time>2018-05-23T12:08:06Z</time>
      </trkpt>
      <trkpt lat="43.4082" lon="5.48476">
        <ele>622.45153263501</ele>
        <time>2018-05-23T12:08:16Z</time>
      </trkpt>
      <trkpt lat="43.40819" lon="5.48464">
        <ele>619.97088042077</ele>
        <time>2018-05-23T12:08:24Z</time>
      </trkpt>
      <trkpt lat="43.40818" lon="5.48452">
        <ele>617.55331925501</ele>
        <time>2018-05-23T12:08:32Z</time>
      </trkpt>
      <trkpt lat="43.40818" lon="5.4844">
        <ele>614.7300468083</ele>
        <time>2018-05-23T12:08:42Z</time>
      </trkpt>
      <trkpt lat="43.40818" lon="5.48428">
        <ele>611.9077027027</ele>
        <time>2018-05-23T12:08:53Z</time>
      </trkpt>
      <trkpt lat="43.40819" lon="5.48416">
        <ele>609.57474231698</ele>
        <time>2018-05-23T12:09:03Z</time>
      </trkpt>
      <trkpt lat="43.40819" lon="5.48405">
        <ele>607.17500806547</ele>
        <time>2018-05-23T12:09:14Z</time>
      </trkpt>
      <trkpt lat="43.40822" lon="5.48393">
        <ele>603.89237592551</ele>
        <time>2018-05-23T12:09:37Z</time>
      </trkpt>
      <trkpt lat="43.40824" lon="5.48381">
        <ele>601.01800582696</ele>
        <time>2018-05-23T12:10:04Z</time>
      </trkpt>
      <trkpt lat="43.40824" lon="5.4837">
        <ele>599.05322761221</ele>
        <time>2018-05-23T12:10:14Z</time>
      </trkpt>
      <trkpt lat="43.40827" lon="5.48358">
        <ele>597.16236985519</ele>
        <time>2018-05-23T12:10:25Z</time>
      </trkpt>
      <trkpt lat="43.40833" lon="5.48351">
        <ele>595.97074306474</ele>
        <time>2018-05-23T12:10:33Z</time>
      </trkpt>
      <trkpt lat="43.40825" lon="5.48352">
        <ele>586.51609685474</ele>
        <time>2018-05-23T12:19:24Z</time>
      </trkpt>
      <trkpt lat="43.40833" lon="5.48348">
        <ele>585.65159161974</ele>
        <time>2018-05-23T12:21:19Z</time>
      </trkpt>
      <trkpt lat="43.40826" lon="5.48355">
        <ele>584.11241463465</ele>
        <time>2018-05-23T12:32:24Z</time>
      </trkpt>
      <trkpt lat="43.40829" lon="5.48343">
        <ele>584.15040251603</ele>
        <time>2018-05-23T12:34:20Z</time>
      </trkpt>
      <trkpt lat="43.40831" lon="5.48355">
        <ele>584.56931777151</ele>
        <time>2018-05-23T12:39:05Z</time>
      </trkpt>
      <trkpt lat="43.40839" lon="5.48361">
        <ele>584.6254400073</ele>
        <time>2018-05-23T12:39:33Z</time>
      </trkpt>
      <trkpt lat="43.40843" lon="5.48371">
        <ele>584.66804829097</ele>
        <time>2018-05-23T12:39:48Z</time>
      </trkpt>
      <trkpt lat="43.40844" lon="5.48382">
        <ele>584.67909570046</ele>
        <time>2018-05-23T12:39:57Z</time>
      </trkpt>
      <trkpt lat="43.40849" lon="5.48391">
        <ele>584.6780408861</ele>
        <time>2018-05-23T12:40:09Z</time>
      </trkpt>
      <trkpt lat="43.4085" lon="5.48402">
        <ele>584.66397779615</ele>
        <time>2018-05-23T12:40:17Z</time>
      </trkpt>
      <trkpt lat="43.40851" lon="5.48414">
        <ele>584.61986652062</ele>
        <time>2018-05-23T12:40:29Z</time>
      </trkpt>
      <trkpt lat="43.40855" lon="5.48425">
        <ele>584.56360302825</ele>
        <time>2018-05-23T12:40:39Z</time>
      </trkpt>
      <trkpt lat="43.40859" lon="5.48436">
        <ele>584.49268861714</ele>
        <time>2018-05-23T12:40:48Z</time>
      </trkpt>
      <trkpt lat="43.40862" lon="5.48446">
        <ele>584.40856681716</ele>
        <time>2018-05-23T12:40:57Z</time>
      </trkpt>
      <trkpt lat="43.40865" lon="5.48456">
        <ele>584.29978744043</ele>
        <time>2018-05-23T12:41:07Z</time>
      </trkpt>
      <trkpt lat="43.40869" lon="5.48467">
        <ele>584.16178141757</ele>
        <time>2018-05-23T12:41:18Z</time>
      </trkpt>
      <trkpt lat="43.40874" lon="5.48476">
        <ele>584.00890380039</ele>
        <time>2018-05-23T12:41:29Z</time>
      </trkpt>
      <trkpt lat="43.40877" lon="5.48487">
        <ele>583.92160810893</ele>
        <time>2018-05-23T12:41:35Z</time>
      </trkpt>
      <trkpt lat="43.4088" lon="5.48497">
        <ele>583.81085515088</ele>
        <time>2018-05-23T12:41:42Z</time>
      </trkpt>
      <trkpt lat="43.40884" lon="5.48508">
        <ele>583.63748179064</ele>
        <time>2018-05-23T12:41:52Z</time>
      </trkpt>
      <trkpt lat="43.40887" lon="5.48519">
        <ele>583.48790876851</ele>
        <time>2018-05-23T12:42:00Z</time>
      </trkpt>
      <trkpt lat="43.40893" lon="5.48526">
        <ele>583.32800881652</ele>
        <time>2018-05-23T12:42:08Z</time>
      </trkpt>
      <trkpt lat="43.40898" lon="5.48536">
        <ele>583.10787895571</ele>
        <time>2018-05-23T12:42:24Z</time>
      </trkpt>
      <trkpt lat="43.40904" lon="5.48543">
        <ele>582.91590853314</ele>
        <time>2018-05-23T12:42:32Z</time>
      </trkpt>
      <trkpt lat="43.40908" lon="5.48553">
        <ele>582.77070709401</ele>
        <time>2018-05-23T12:42:38Z</time>
      </trkpt>
      <trkpt lat="43.40909" lon="5.48564">
        <ele>582.54853349887</ele>
        <time>2018-05-23T12:42:47Z</time>
      </trkpt>
      <trkpt lat="43.40911" lon="5.48576">
        <ele>582.32167126155</ele>
        <time>2018-05-23T12:42:56Z</time>
      </trkpt>
      <trkpt lat="43.40914" lon="5.48587">
        <ele>582.09900876429</ele>
        <time>2018-05-23T12:43:05Z</time>
      </trkpt>
      <trkpt lat="43.40916" lon="5.48598">
        <ele>581.90519544384</ele>
        <time>2018-05-23T12:43:13Z</time>
      </trkpt>
      <trkpt lat="43.40921" lon="5.48608">
        <ele>581.67405969815</ele>
        <time>2018-05-23T12:43:23Z</time>
      </trkpt>
      <trkpt lat="43.40926" lon="5.48618">
        <ele>581.46544157002</ele>
        <time>2018-05-23T12:43:32Z</time>
      </trkpt>
      <trkpt lat="43.40931" lon="5.48628">
        <ele>581.27840772273</ele>
        <time>2018-05-23T12:43:40Z</time>
      </trkpt>
      <trkpt lat="43.40931" lon="5.48639">
        <ele>581.07098638714</ele>
        <time>2018-05-23T12:43:49Z</time>
      </trkpt>
      <trkpt lat="43.40932" lon="5.48651">
        <ele>580.85297979095</ele>
        <time>2018-05-23T12:43:58Z</time>
      </trkpt>
      <trkpt lat="43.40934" lon="5.48663">
        <ele>580.60595034068</ele>
        <time>2018-05-23T12:44:08Z</time>
      </trkpt>
      <trkpt lat="43.40935" lon="5.48674">
        <ele>580.38807555839</ele>
        <time>2018-05-23T12:44:16Z</time>
      </trkpt>
      <trkpt lat="43.40938" lon="5.48684">
        <ele>580.11408216892</ele>
        <time>2018-05-23T12:44:25Z</time>
      </trkpt>
      <trkpt lat="43.40941" lon="5.48695">
        <ele>579.84190687351</ele>
        <time>2018-05-23T12:44:34Z</time>
      </trkpt>
      <trkpt lat="43.40946" lon="5.48705">
        <ele>579.56812000104</ele>
        <time>2018-05-23T12:44:44Z</time>
      </trkpt>
      <trkpt lat="43.40951" lon="5.48714">
        <ele>579.29429251627</ele>
        <time>2018-05-23T12:44:52Z</time>
      </trkpt>
      <trkpt lat="43.40956" lon="5.48724">
        <ele>578.98768368227</ele>
        <time>2018-05-23T12:45:02Z</time>
      </trkpt>
      <trkpt lat="43.40961" lon="5.48733">
        <ele>578.70908023199</ele>
        <time>2018-05-23T12:45:11Z</time>
      </trkpt>
      <trkpt lat="43.40964" lon="5.48745">
        <ele>578.49709601816</ele>
        <time>2018-05-23T12:45:18Z</time>
      </trkpt>
      <trkpt lat="43.40965" lon="5.48757">
        <ele>578.2833105673</ele>
        <time>2018-05-23T12:45:25Z</time>
      </trkpt>
      <trkpt lat="43.40966" lon="5.48768">
        <ele>578.00008860118</ele>
        <time>2018-05-23T12:45:34Z</time>
      </trkpt>
      <trkpt lat="43.40967" lon="5.48779">
        <ele>577.77589530132</ele>
        <time>2018-05-23T12:45:41Z</time>
      </trkpt>
      <trkpt lat="43.40966" lon="5.48791">
        <ele>577.49187709581</ele>
        <time>2018-05-23T12:45:50Z</time>
      </trkpt>
      <trkpt lat="43.40968" lon="5.48803">
        <ele>577.01972721753</ele>
        <time>2018-05-23T12:46:07Z</time>
      </trkpt>
      <trkpt lat="43.40973" lon="5.48813">
        <ele>576.71963231976</ele>
        <time>2018-05-23T12:46:19Z</time>
      </trkpt>
      <trkpt lat="43.40978" lon="5.48822">
        <ele>576.50512838701</ele>
        <time>2018-05-23T12:46:28Z</time>
      </trkpt>
      <trkpt lat="43.40983" lon="5.48831">
        <ele>576.30255557472</ele>
        <time>2018-05-23T12:46:37Z</time>
      </trkpt>
      <trkpt lat="43.40987" lon="5.48842">
        <ele>576.11713277226</ele>
        <time>2018-05-23T12:46:46Z</time>
      </trkpt>
      <trkpt lat="43.40988" lon="5.48853">
        <ele>575.95952598134</ele>
        <time>2018-05-23T12:46:54Z</time>
      </trkpt>
      <trkpt lat="43.40991" lon="5.48863">
        <ele>575.80263768861</ele>
        <time>2018-05-23T12:47:02Z</time>
      </trkpt>
      <trkpt lat="43.40995" lon="5.48874">
        <ele>575.62566766565</ele>
        <time>2018-05-23T12:47:11Z</time>
      </trkpt>
      <trkpt lat="43.40998" lon="5.48885">
        <ele>575.48223860328</ele>
        <time>2018-05-23T12:47:18Z</time>
      </trkpt>
      <trkpt lat="43.40998" lon="5.48898">
        <ele>575.26890012843</ele>
        <time>2018-05-23T12:47:28Z</time>
      </trkpt>
      <trkpt lat="43.40998" lon="5.48908">
        <ele>575.09641399635</ele>
        <time>2018-05-23T12:47:36Z</time>
      </trkpt>
      <trkpt lat="43.41001" lon="5.48919">
        <ele>574.97039294602</ele>
        <time>2018-05-23T12:47:42Z</time>
      </trkpt>
      <trkpt lat="43.41005" lon="5.48928">
        <ele>574.80551002074</ele>
        <time>2018-05-23T12:47:50Z</time>
      </trkpt>
      <trkpt lat="43.41012" lon="5.48935">
        <ele>574.67520422042</ele>
        <time>2018-05-23T12:47:56Z</time>
      </trkpt>
      <trkpt lat="43.41018" lon="5.48944">
        <ele>574.45222013032</ele>
        <time>2018-05-23T12:48:06Z</time>
      </trkpt>
      <trkpt lat="43.41024" lon="5.48952">
        <ele>574.22562952119</ele>
        <time>2018-05-23T12:48:16Z</time>
      </trkpt>
      <trkpt lat="43.41027" lon="5.48963">
        <ele>574.01091998184</ele>
        <time>2018-05-23T12:48:25Z</time>
      </trkpt>
      <trkpt lat="43.41031" lon="5.48974">
        <ele>573.80069697118</ele>
        <time>2018-05-23T12:48:33Z</time>
      </trkpt>
      <trkpt lat="43.41035" lon="5.48983">
        <ele>573.61730235415</ele>
        <time>2018-05-23T12:48:39Z</time>
      </trkpt>
      <trkpt lat="43.41037" lon="5.48995">
        <ele>573.25247525697</ele>
        <time>2018-05-23T12:48:48Z</time>
      </trkpt>
      <trkpt lat="43.41042" lon="5.49006">
        <ele>572.68435853911</ele>
        <time>2018-05-23T12:48:59Z</time>
      </trkpt>
      <trkpt lat="43.41046" lon="5.49016">
        <ele>572.14602697733</ele>
        <time>2018-05-23T12:49:07Z</time>
      </trkpt>
      <trkpt lat="43.4105" lon="5.49026">
        <ele>571.43720967786</ele>
        <time>2018-05-23T12:49:15Z</time>
      </trkpt>
      <trkpt lat="43.41056" lon="5.49035">
        <ele>570.44847681402</ele>
        <time>2018-05-23T12:49:25Z</time>
      </trkpt>
      <trkpt lat="43.4106" lon="5.49046">
        <ele>569.73589191568</ele>
        <time>2018-05-23T12:49:32Z</time>
      </trkpt>
      <trkpt lat="43.41065" lon="5.49055">
        <ele>568.88769411202</ele>
        <time>2018-05-23T12:49:40Z</time>
      </trkpt>
      <trkpt lat="43.41072" lon="5.49062">
        <ele>567.75412900877</ele>
        <time>2018-05-23T12:49:50Z</time>
      </trkpt>
      <trkpt lat="43.41078" lon="5.4907">
        <ele>566.55253991169</ele>
        <time>2018-05-23T12:50:00Z</time>
      </trkpt>
      <trkpt lat="43.41085" lon="5.49076">
        <ele>565.5435126665</ele>
        <time>2018-05-23T12:50:08Z</time>
      </trkpt>
      <trkpt lat="43.4109" lon="5.49086">
        <ele>563.7832293881</ele>
        <time>2018-05-23T12:50:22Z</time>
      </trkpt>
      <trkpt lat="43.41095" lon="5.49095">
        <ele>562.85138421197</ele>
        <time>2018-05-23T12:50:30Z</time>
      </trkpt>
      <trkpt lat="43.41101" lon="5.49103">
        <ele>561.37865399107</ele>
        <time>2018-05-23T12:50:43Z</time>
      </trkpt>
      <trkpt lat="43.41105" lon="5.49114">
        <ele>560.27156249037</ele>
        <time>2018-05-23T12:50:58Z</time>
      </trkpt>
      <trkpt lat="43.41106" lon="5.49126">
        <ele>559.4674882542</ele>
        <time>2018-05-23T12:51:12Z</time>
      </trkpt>
      <trkpt lat="43.41111" lon="5.49135">
        <ele>558.22234345748</ele>
        <time>2018-05-23T12:51:34Z</time>
      </trkpt>
      <trkpt lat="43.4111" lon="5.49133">
        <ele>556.60654264348</ele>
        <time>2018-05-23T12:52:09Z</time>
      </trkpt>
      <trkpt lat="43.4111" lon="5.49133">
        <ele>556.60654264348</ele>
        <time>2018-05-23T12:52:10Z</time>
      </trkpt>
    </trkseg>
  </trk>
</gpx>